Observation data for Guadalupe Mtns Park on 11/19/2019      Previous  Date       Current Mesonet Observations  Soil Data  Daily Summary Page  Observations in Plain Language
KGU1 190600Z 29010KT 14/M04 A3009 RMK A01 T01431038  RH  029%=      5-min Rain = 0
KGU1 190601Z 29008KT 14/M04 A3009 RMK A01 T01431038  RH  029%=      5-min Rain = 0
KGU1 190602Z 29009KT 14/M04 A3009 RMK A01 T01421038  RH  029%=      5-min Rain = 0
KGU1 190603Z 30010KT 14/M04 A3009 RMK A01 T01421038  RH  029%=      5-min Rain = 0
KGU1 190604Z 29012KT 14/M04 A3009 RMK A01 T01411038  RH  029%=      5-min Rain = 0
KGU1 190605Z 28009KT 14/M04 A3009 RMK A01 T01441039  RH  028%=      5-min Rain = 0
KGU1 190606Z 29007KT 15/M04 A3009 RMK A01 T01461038  RH  028%=      5-min Rain = 0
KGU1 190607Z 29006KT 14/M04 A3009 RMK A01 T01431038  RH  029%=      5-min Rain = 0
KGU1 190608Z 29006KT 14/M04 A3009 RMK A01 T01391038  RH  029%=      5-min Rain = 0
KGU1 190609Z 29007KT 14/M04 A3009 RMK A01 T01371038  RH  030%=      5-min Rain = 0
KGU1 190610Z 29006KT 14/M04 A3009 RMK A01 T01361038  RH  030%=      5-min Rain = 0
KGU1 190611Z 30009KT 14/M04 A3009 RMK A01 T01371038  RH  030%=      5-min Rain = 0
KGU1 190612Z 30008KT 14/M04 A3009 RMK A01 T01391038  RH  029%=      5-min Rain = 0
KGU1 190613Z 30009KT 14/M04 A3009 RMK A01 T01401039  RH  029%=      5-min Rain = 0
KGU1 190614Z 30007KT 14/M04 A3009 RMK A01 T01401038  RH  029%=      5-min Rain = 0
KGU1 190615Z 30007KT 14/M04 A3009 RMK A01 T01401038  RH  029%=      5-min Rain = 0
KGU1 190616Z 29006KT 14/M04 A3009 RMK A01 T01401038  RH  029%=      5-min Rain = 0
KGU1 190617Z 31007KT 14/M04 A3009 RMK A01 T01371038  RH  030%=      5-min Rain = 0
KGU1 190618Z 31008KT 14/M04 A3009 RMK A01 T01361039  RH  030%=      5-min Rain = 0
KGU1 190619Z 31007KT 14/M04 A3009 RMK A01 T01381039  RH  029%=      5-min Rain = 0
KGU1 190620Z 33006KT 14/M04 A3009 RMK A01 T01421039  RH  028%=      5-min Rain = 0
KGU1 190621Z 31005KT 14/M04 A3009 RMK A01 T01431039  RH  028%=      5-min Rain = 0
KGU1 190622Z 30006KT 14/M04 A3009 RMK A01 T01411039  RH  029%=      5-min Rain = 0
KGU1 190623Z 30005KT 14/M04 A3009 RMK A01 T01411039  RH  029%=      5-min Rain = 0
KGU1 190624Z 30004KT 14/M04 A3009 RMK A01 T01421039  RH  028%=      5-min Rain = 0
KGU1 190625Z 32006KT 14/M04 A3009 RMK A01 T01431040  RH  028%=      5-min Rain = 0
KGU1 190626Z 32007KT 14/M04 A3009 RMK A01 T01441040  RH  028%=      5-min Rain = 0
KGU1 190627Z 32007KT 15/M04 A3009 RMK A01 T01451039  RH  028%=      5-min Rain = 0
KGU1 190628Z 33005KT 15/M04 A3009 RMK A01 T01471039  RH  027%=      5-min Rain = 0
KGU1 190629Z 34004KT 15/M04 A3009 RMK A01 T01511040  RH  027%=      5-min Rain = 0
KGU1 190630Z 34002KT 16/M04 A3009 RMK A01 T01561040  RH  026%=      5-min Rain = 0
KGU1 190631Z 01001KT 16/M04 A3009 RMK A01 T01591041  RH  025%=      5-min Rain = 0
KGU1 190632Z 32001KT 16/M04 A3009 RMK A01 T01611040  RH  025%=      5-min Rain = 0
KGU1 190633Z 29003KT 16/M04 A3009 RMK A01 T01571040  RH  026%=      5-min Rain = 0
KGU1 190634Z 29003KT 15/M04 A3009 RMK A01 T01531040  RH  026%=      5-min Rain = 0
KGU1 190635Z 29003KT 15/M04 A3009 RMK A01 T01531040  RH  026%=      5-min Rain = 0
KGU1 190636Z 31003KT 15/M04 A3009 RMK A01 T01541041  RH  026%=      5-min Rain = 0
KGU1 190637Z 33003KT 16/M04 A3009 RMK A01 T01551040  RH  026%=      5-min Rain = 0
KGU1 190638Z 33002KT 16/M04 A3009 RMK A01 T01551040  RH  026%=      5-min Rain = 0
KGU1 190639Z 32002KT 16/M04 A3009 RMK A01 T01571040  RH  026%=      5-min Rain = 0
KGU1 190640Z 28002KT 16/M04 A3009 RMK A01 T01571040  RH  026%=      5-min Rain = 0
KGU1 190641Z 23002KT 16/M04 A3009 RMK A01 T01551039  RH  026%=      5-min Rain = 0
KGU1 190642Z 25003KT 15/M04 A3009 RMK A01 T01481039  RH  027%=      5-min Rain = 0
KGU1 190643Z 28003KT 14/M04 A3009 RMK A01 T01421039  RH  028%=      5-min Rain = 0
KGU1 190644Z 31002KT 14/M04 A3009 RMK A01 T01421040  RH  028%=      5-min Rain = 0
KGU1 190645Z 32002KT 15/M04 A3009 RMK A01 T01451040  RH  028%=      5-min Rain = 0
KGU1 190646Z 31004KT 15/M04 A3009 RMK A01 T01461040  RH  028%=      5-min Rain = 0
KGU1 190647Z 32003KT 15/M04 A3009 RMK A01 T01471040  RH  027%=      5-min Rain = 0
KGU1 190648Z 32003KT 15/M04 A3009 RMK A01 T01511040  RH  027%=      5-min Rain = 0
KGU1 190649Z 32003KT 15/M04 A3009 RMK A01 T01511040  RH  027%=      5-min Rain = 0
KGU1 190650Z 32004KT 15/M04 A3009 RMK A01 T01491040  RH  027%=      5-min Rain = 0
KGU1 190651Z 29004KT 15/M04 A3009 RMK A01 T01451040  RH  028%=      5-min Rain = 0
KGU1 190652Z 27004KT 14/M04 A3009 RMK A01 T01411039  RH  029%=      5-min Rain = 0
KGU1 190653Z 25004KT 14/M04 A3009 RMK A01 T01381039  RH  029%=      5-min Rain = 0
KGU1 190654Z 26004KT 14/M04 A3009 RMK A01 T01391039  RH  029%=      5-min Rain = 0
KGU1 190655Z 28003KT 14/M04 A3009 RMK A01 T01411040  RH  029%=      5-min Rain = 0
KGU1 190656Z 28003KT 14/M04 A3009 RMK A01 T01421040  RH  028%=      5-min Rain = 0
KGU1 190657Z 27003KT 14/M04 A3009 RMK A01 T01441040  RH  028%=      5-min Rain = 0
KGU1 190658Z 29005KT 15/M04 A3009 RMK A01 T01471040  RH  027%=      5-min Rain = 0
KGU1 190659Z 29005KT 15/M04 A3009 RMK A01 T01471040  RH  027%=      5-min Rain = 0
KGU1 190700Z 30006KT 14/M04 A3009 RMK A01 T01441039  RH  028%=      5-min Rain = 0
KGU1 190701Z 30005KT 14/M04 A3009 RMK A01 T01431039  RH  028%=      5-min Rain = 0
KGU1 190702Z 30005KT 14/M04 A3009 RMK A01 T01411039  RH  029%=      5-min Rain = 0
KGU1 190703Z 29007KT 14/M04 A3009 RMK A01 T01401040  RH  029%=      5-min Rain = 0
KGU1 190704Z 30006KT 14/M04 A3009 RMK A01 T01411039  RH  029%=      5-min Rain = 0
KGU1 190705Z 30005KT 14/M04 A3009 RMK A01 T01421040  RH  028%=      5-min Rain = 0
KGU1 190706Z 30007KT 14/M04 A3009 RMK A01 T01441040  RH  028%=      5-min Rain = 0
KGU1 190707Z 29008KT 14/M04 A3009 RMK A01 T01431039  RH  028%=      5-min Rain = 0
KGU1 190708Z 29007KT 14/M04 A3009 RMK A01 T01411039  RH  029%=      5-min Rain = 0
KGU1 190709Z 28006KT 14/M04 A3009 RMK A01 T01391040  RH  029%=      5-min Rain = 0
KGU1 190710Z 28004KT 14/M04 A3009 RMK A01 T01401040  RH  029%=      5-min Rain = 0
KGU1 190711Z 28003KT 14/M04 A3009 RMK A01 T01401040  RH  028%=      5-min Rain = 0
KGU1 190712Z 28002KT 14/M04 A3009 RMK A01 T01401040  RH  028%=      5-min Rain = 0
KGU1 190713Z 29002KT 14/M04 A3009 RMK A01 T01411040  RH  028%=      5-min Rain = 0
KGU1 190714Z 29004KT 14/M04 A3009 RMK A01 T01401040  RH  029%=      5-min Rain = 0
KGU1 190715Z 29004KT 14/M04 A3009 RMK A01 T01371040  RH  029%=      5-min Rain = 0
KGU1 190716Z 28003KT 14/M04 A3009 RMK A01 T01361040  RH  029%=      5-min Rain = 0
KGU1 190717Z 28003KT 14/M04 A3009 RMK A01 T01361040  RH  029%=      5-min Rain = 0
KGU1 190718Z 28004KT 14/M04 A3009 RMK A01 T01351040  RH  030%=      5-min Rain = 0
KGU1 190719Z 30007KT 13/M04 A3009 RMK A01 T01331040  RH  030%=      5-min Rain = 0
KGU1 190720Z 30005KT 13/M04 A3009 RMK A01 T01341040  RH  030%=      5-min Rain = 0
KGU1 190721Z 29005KT 14/M04 A3009 RMK A01 T01361040  RH  029%=      5-min Rain = 0
KGU1 190722Z 29005KT 14/M04 A3009 RMK A01 T01351040  RH  030%=      5-min Rain = 0
KGU1 190723Z 28005KT 13/M04 A3009 RMK A01 T01321040  RH  030%=      5-min Rain = 0
KGU1 190724Z 30006KT 13/M04 A3009 RMK A01 T01281040  RH  031%=      5-min Rain = 0
KGU1 190725Z 29005KT 13/M04 A3009 RMK A01 T01261040  RH  031%=      5-min Rain = 0
KGU1 190726Z 29006KT 13/M04 A3009 RMK A01 T01251040  RH  032%=      5-min Rain = 0
KGU1 190727Z 30007KT 12/M04 A3009 RMK A01 T01241040  RH  032%=      5-min Rain = 0
KGU1 190728Z 30006KT 13/M04 A3009 RMK A01 T01261041  RH  031%=      5-min Rain = 0
KGU1 190729Z 31007KT 13/M04 A3009 RMK A01 T01301041  RH  030%=      5-min Rain = 0
KGU1 190730Z 30005KT 13/M04 A3009 RMK A01 T01321041  RH  030%=      5-min Rain = 0
KGU1 190731Z 30005KT 13/M04 A3009 RMK A01 T01321041  RH  030%=      5-min Rain = 0
KGU1 190732Z 30007KT 13/M04 A3009 RMK A01 T01301041  RH  030%=      5-min Rain = 0
KGU1 190733Z 30007KT 13/M04 A3009 RMK A01 T01321041  RH  030%=      5-min Rain = 0
KGU1 190734Z 30009KT 13/M04 A3009 RMK A01 T01331041  RH  030%=      5-min Rain = 0
KGU1 190735Z 29009KT 13/M04 A3009 RMK A01 T01341042  RH  029%=      5-min Rain = 0
KGU1 190736Z 30010KT 14/M04 A3009 RMK A01 T01401043  RH  028%=      5-min Rain = 0
KGU1 190737Z 31008KT 15/M04 A3009 RMK A01 T01461043  RH  027%=      5-min Rain = 0
KGU1 190738Z 31007KT 15/M04 A3009 RMK A01 T01491043  RH  026%=      5-min Rain = 0
KGU1 190739Z 31006KT 15/M04 A3008 RMK A01 T01481043  RH  027%=      5-min Rain = 0
KGU1 190740Z 27007KT 15/M04 A3008 RMK A01 T01461042  RH  027%=      5-min Rain = 0
KGU1 190741Z 29006KT 14/M04 A3008 RMK A01 T01421042  RH  028%=      5-min Rain = 0
KGU1 190742Z 29006KT 14/M04 A3008 RMK A01 T01421043  RH  028%=      5-min Rain = 0
KGU1 190743Z 28006KT 14/M04 A3008 RMK A01 T01431043  RH  028%=      5-min Rain = 0
KGU1 190744Z 29006KT 14/M04 A3008 RMK A01 T01431043  RH  028%=      5-min Rain = 0
KGU1 190745Z 29010KT 14/M04 A3008 RMK A01 T01431043  RH  028%=      5-min Rain = 0
KGU1 190746Z 28008KT 15/M04 A3008 RMK A01 T01461043  RH  027%=      5-min Rain = 0
KGU1 190747Z 29008KT 15/M04 A3008 RMK A01 T01501043  RH  026%=      5-min Rain = 0
KGU1 190748Z 30008KT 15/M04 A3008 RMK A01 T01511044  RH  026%=      5-min Rain = 0
KGU1 190749Z 30006KT 15/M04 A3008 RMK A01 T01491043  RH  026%=      5-min Rain = 0
KGU1 190750Z 29007KT 15/M04 A3008 RMK A01 T01491043  RH  026%=      5-min Rain = 0
KGU1 190751Z 28010KT 15/M04 A3008 RMK A01 T01471043  RH  027%=      5-min Rain = 0
KGU1 190752Z 29009KT 15/M04 A3008 RMK A01 T01471044  RH  027%=      5-min Rain = 0
KGU1 190753Z 29010KT 15/M04 A3008 RMK A01 T01481044  RH  026%=      5-min Rain = 0
KGU1 190754Z 29010KT 15/M05 A3008 RMK A01 T01501045  RH  026%=      5-min Rain = 0
KGU1 190755Z 29010KT 15/M05 A3008 RMK A01 T01521045  RH  026%=      5-min Rain = 0
KGU1 190756Z 29010KT 15/M05 A3008 RMK A01 T01541045  RH  025%=      5-min Rain = 0
KGU1 190757Z 29009KT 16/M05 A3008 RMK A01 T01551045  RH  025%=      5-min Rain = 0
KGU1 190758Z 28009KT 15/M05 A3008 RMK A01 T01541045  RH  025%=      5-min Rain = 0
KGU1 190759Z 28008KT 15/M05 A3008 RMK A01 T01541045  RH  025%=      5-min Rain = 0
KGU1 190800Z 29009KT 16/M05 A3008 RMK A01 T01551045  RH  025%=      5-min Rain = 0
KGU1 190801Z 29011KT 15/M05 A3008 RMK A01 T01531045  RH  025%=      5-min Rain = 0
KGU1 190802Z 29010KT 15/M05 A3008 RMK A01 T01531045  RH  025%=      5-min Rain = 0
KGU1 190803Z 29007KT 16/M05 A3008 RMK A01 T01551045  RH  025%=      5-min Rain = 0
KGU1 190804Z 29009KT 16/M05 A3008 RMK A01 T01551045  RH  025%=      5-min Rain = 0
KGU1 190805Z 30008KT 16/M05 A3008 RMK A01 T01551045  RH  025%=      5-min Rain = 0
KGU1 190806Z 29007KT 16/M05 A3008 RMK A01 T01551045  RH  025%=      5-min Rain = 0
KGU1 190807Z 27007KT 15/M04 A3008 RMK A01 T01531044  RH  025%=      5-min Rain = 0
KGU1 190808Z 29009KT 15/M05 A3008 RMK A01 T01511045  RH  026%=      5-min Rain = 0
KGU1 190809Z 29008KT 15/M05 A3008 RMK A01 T01521045  RH  025%=      5-min Rain = 0
KGU1 190810Z 29009KT 15/M05 A3008 RMK A01 T01521045  RH  026%=      5-min Rain = 0
KGU1 190811Z 29012KT 15/M05 A3008 RMK A01 T01511045  RH  026%=      5-min Rain = 0
KGU1 190812Z 28009KT 15/M05 A3008 RMK A01 T01541045  RH  025%=      5-min Rain = 0
KGU1 190813Z 28009KT 16/M05 A3008 RMK A01 T01551045  RH  025%=      5-min Rain = 0
KGU1 190814Z 28010KT 15/M05 A3008 RMK A01 T01541045  RH  025%=      5-min Rain = 0
KGU1 190815Z 27007KT 16/M05 A3008 RMK A01 T01551046  RH  025%=      5-min Rain = 0
KGU1 190816Z 28008KT 16/M05 A3008 RMK A01 T01571045  RH  025%=      5-min Rain = 0
KGU1 190817Z 28011KT 16/M05 A3009 RMK A01 T01551045  RH  025%=      5-min Rain = 0
KGU1 190818Z 29011KT 15/M05 A3008 RMK A01 T01541045  RH  025%=      5-min Rain = 0
KGU1 190819Z 30009KT 16/M05 A3008 RMK A01 T01571046  RH  024%=      5-min Rain = 0
KGU1 190820Z 29010KT 16/M05 A3008 RMK A01 T01591046  RH  024%=      5-min Rain = 0
KGU1 190821Z 29009KT 16/M05 A3008 RMK A01 T01571046  RH  024%=      5-min Rain = 0
KGU1 190822Z 28011KT 16/M05 A3008 RMK A01 T01581046  RH  024%=      5-min Rain = 0
KGU1 190823Z 28008KT 16/M05 A3008 RMK A01 T01611047  RH  024%=      5-min Rain = 0
KGU1 190824Z 29011KT 16/M05 A3008 RMK A01 T01631046  RH  024%=      5-min Rain = 0
KGU1 190825Z 30011KT 16/M05 A3008 RMK A01 T01601046  RH  024%=      5-min Rain = 0
KGU1 190826Z 30008KT 16/M05 A3008 RMK A01 T01611047  RH  024%=      5-min Rain = 0
KGU1 190827Z 30009KT 16/M05 A3008 RMK A01 T01591046  RH  024%=      5-min Rain = 0
KGU1 190828Z 31010KT 16/M05 A3008 RMK A01 T01571046  RH  024%=      5-min Rain = 0
KGU1 190829Z 30008KT 16/M05 A3008 RMK A01 T01571047  RH  024%=      5-min Rain = 0
KGU1 190830Z 28008KT 16/M05 A3008 RMK A01 T01561046  RH  025%=      5-min Rain = 0
KGU1 190831Z 29008KT 15/M05 A3008 RMK A01 T01541046  RH  025%=      5-min Rain = 0
KGU1 190832Z 30008KT 15/M05 A3008 RMK A01 T01521046  RH  025%=      5-min Rain = 0
KGU1 190833Z 30010KT 15/M05 A3008 RMK A01 T01521046  RH  025%=      5-min Rain = 0
KGU1 190834Z 29009KT 15/M05 A3008 RMK A01 T01521047  RH  025%=      5-min Rain = 0
KGU1 190835Z 29008KT 15/M05 A3008 RMK A01 T01521046  RH  025%=      5-min Rain = 0
KGU1 190836Z 30007KT 15/M05 A3008 RMK A01 T01501046  RH  026%=      5-min Rain = 0
KGU1 190837Z 27006KT 15/M05 A3008 RMK A01 T01471046  RH  026%=      5-min Rain = 0
KGU1 190838Z 27006KT 15/M05 A3008 RMK A01 T01481048  RH  026%=      5-min Rain = 0
KGU1 190839Z 26005KT 15/M05 A3008 RMK A01 T01521048  RH  025%=      5-min Rain = 0
KGU1 190840Z 28005KT 15/M05 A3008 RMK A01 T01541049  RH  024%=      5-min Rain = 0
KGU1 190841Z 29006KT 16/M05 A3008 RMK A01 T01551049  RH  024%=      5-min Rain = 0
KGU1 190842Z 28007KT 16/M05 A3008 RMK A01 T01551049  RH  024%=      5-min Rain = 0
KGU1 190843Z 28006KT 16/M05 A3008 RMK A01 T01571048  RH  024%=      5-min Rain = 0
KGU1 190844Z 28005KT 16/M05 A3008 RMK A01 T01581048  RH  024%=      5-min Rain = 0
KGU1 190845Z 27004KT 16/M05 A3008 RMK A01 T01581048  RH  024%=      5-min Rain = 0
KGU1 190846Z 26003KT 16/M05 A3008 RMK A01 T01581049  RH  024%=      5-min Rain = 0
KGU1 190847Z 28005KT 16/M05 A3008 RMK A01 T01571049  RH  024%=      5-min Rain = 0
KGU1 190848Z 30005KT 16/M05 A3008 RMK A01 T01571048  RH  024%=      5-min Rain = 0
KGU1 190849Z 29006KT 16/M05 A3008 RMK A01 T01571048  RH  024%=      5-min Rain = 0
KGU1 190850Z 28007KT 15/M05 A3008 RMK A01 T01541047  RH  025%=      5-min Rain = 0
KGU1 190851Z 28008KT 15/M05 A3008 RMK A01 T01501047  RH  026%=      5-min Rain = 0
KGU1 190852Z 29010KT 15/M05 A3008 RMK A01 T01481046  RH  026%=      5-min Rain = 0
KGU1 190853Z 29010KT 15/M05 A3008 RMK A01 T01471047  RH  026%=      5-min Rain = 0
KGU1 190854Z 30008KT 15/M05 A3008 RMK A01 T01471046  RH  026%=      5-min Rain = 0
KGU1 190855Z 29007KT 15/M05 A3008 RMK A01 T01461047  RH  026%=      5-min Rain = 0
KGU1 190856Z 30010KT 14/M05 A3008 RMK A01 T01441046  RH  027%=      5-min Rain = 0
KGU1 190857Z 30011KT 14/M05 A3008 RMK A01 T01421046  RH  027%=      5-min Rain = 0
KGU1 190858Z 30009KT 14/M05 A3008 RMK A01 T01431046  RH  027%=      5-min Rain = 0
KGU1 190859Z 30011KT 14/M05 A3008 RMK A01 T01431046  RH  027%=      5-min Rain = 0
KGU1 190900Z 30011KT 14/M05 A3008 RMK A01 T01431046  RH  027%=      5-min Rain = 0
KGU1 190901Z 30011KT 14/M05 A3008 RMK A01 T01441046  RH  027%=      5-min Rain = 0
KGU1 190902Z 30012KT 14/M05 A3008 RMK A01 T01431046  RH  027%=      5-min Rain = 0
KGU1 190903Z 30011KT 14/M05 A3007 RMK A01 T01431046  RH  027%=      5-min Rain = 0
KGU1 190904Z 30011KT 14/M05 A3007 RMK A01 T01431046  RH  027%=      5-min Rain = 0
KGU1 190905Z 31011KT 14/M05 A3007 RMK A01 T01421046  RH  027%=      5-min Rain = 0
KGU1 190906Z 31011KT 14/M05 A3007 RMK A01 T01421046  RH  027%=      5-min Rain = 0
KGU1 190907Z 31010KT 14/M05 A3007 RMK A01 T01431046  RH  027%=      5-min Rain = 0
KGU1 190908Z 30011KT 14/M05 A3007 RMK A01 T01431046  RH  027%=      5-min Rain = 0
KGU1 190909Z 31010KT 14/M05 A3007 RMK A01 T01441046  RH  027%=      5-min Rain = 0
KGU1 190910Z 31012KT 14/M05 A3007 RMK A01 T01441046  RH  027%=      5-min Rain = 0
KGU1 190911Z 31011KT 14/M05 A3007 RMK A01 T01441046  RH  027%=      5-min Rain = 0
KGU1 190912Z 30010KT 14/M05 A3007 RMK A01 T01431046  RH  027%=      5-min Rain = 0
KGU1 190913Z 31010KT 14/M05 A3007 RMK A01 T01421046  RH  027%=      5-min Rain = 0
KGU1 190914Z 30010KT 14/M05 A3007 RMK A01 T01421046  RH  027%=      5-min Rain = 0
KGU1 190915Z 30010KT 14/M05 A3007 RMK A01 T01431047  RH  027%=      5-min Rain = 0
KGU1 190916Z 31010KT 14/M05 A3007 RMK A01 T01431046  RH  027%=      5-min Rain = 0
KGU1 190917Z 31011KT 14/M05 A3007 RMK A01 T01431046  RH  027%=      5-min Rain = 0
KGU1 190918Z 31011KT 14/M05 A3007 RMK A01 T01431047  RH  027%=      5-min Rain = 0
KGU1 190919Z 31011KT 14/M05 A3007 RMK A01 T01431047  RH  027%=      5-min Rain = 0
KGU1 190920Z 32011KT 14/M05 A3007 RMK A01 T01441046  RH  027%=      5-min Rain = 0
KGU1 190921Z 33010KT 15/M05 A3007 RMK A01 T01461047  RH  026%=      5-min Rain = 0
KGU1 190922Z 34008KT 15/M05 A3007 RMK A01 T01481046  RH  026%=      5-min Rain = 0
KGU1 190923Z 34007KT 15/M05 A3007 RMK A01 T01501046  RH  026%=      5-min Rain = 0
KGU1 190924Z 34007KT 15/M05 A3007 RMK A01 T01531046  RH  025%=      5-min Rain = 0
KGU1 190925Z 33006KT 16/M05 A3007 RMK A01 T01551045  RH  025%=      5-min Rain = 0
KGU1 190926Z 34007KT 16/M05 A3007 RMK A01 T01551046  RH  025%=      5-min Rain = 0
KGU1 190927Z 36006KT 16/M04 A3007 RMK A01 T01561044  RH  025%=      5-min Rain = 0
KGU1 190928Z 33007KT 16/M05 A3007 RMK A01 T01561045  RH  025%=      5-min Rain = 0
KGU1 190929Z 36005KT 16/M05 A3007 RMK A01 T01551045  RH  025%=      5-min Rain = 0
KGU1 190930Z 34004KT 16/M05 A3007 RMK A01 T01551045  RH  025%=      5-min Rain = 0
KGU1 190931Z 00003KT 15/M04 A3007 RMK A01 T01541044  RH  025%=      5-min Rain = 0
KGU1 190932Z 01003KT 15/M04 A3007 RMK A01 T01541043  RH  026%=      5-min Rain = 0
KGU1 190933Z 33003KT 15/M04 A3007 RMK A01 T01531043  RH  026%=      5-min Rain = 0
KGU1 190934Z 00003KT 15/M04 A3007 RMK A01 T01541042  RH  026%=      5-min Rain = 0
KGU1 190935Z 02003KT 16/M04 A3006 RMK A01 T01561042  RH  025%=      5-min Rain = 0
KGU1 190936Z 01003KT 16/M04 A3007 RMK A01 T01581042  RH  025%=      5-min Rain = 0
KGU1 190937Z 33004KT 16/M04 A3007 RMK A01 T01551042  RH  026%=      5-min Rain = 0
KGU1 190938Z 35003KT 15/M04 A3007 RMK A01 T01531042  RH  026%=      5-min Rain = 0
KGU1 190939Z 33005KT 16/M04 A3007 RMK A01 T01561042  RH  025%=      5-min Rain = 0
KGU1 190940Z 02004KT 16/M04 A3007 RMK A01 T01571044  RH  025%=      5-min Rain = 0
KGU1 190941Z 03003KT 16/M04 A3007 RMK A01 T01601042  RH  025%=      5-min Rain = 0
KGU1 190942Z 03003KT 16/M04 A3007 RMK A01 T01611041  RH  025%=      5-min Rain = 0
KGU1 190943Z 07004KT 16/M04 A3006 RMK A01 T01601041  RH  025%=      5-min Rain = 0
KGU1 190944Z 04003KT 16/M04 A3007 RMK A01 T01571041  RH  026%=      5-min Rain = 0
KGU1 190945Z 01004KT 15/M04 A3007 RMK A01 T01531041  RH  026%=      5-min Rain = 0
KGU1 190946Z 03002KT 15/M04 A3007 RMK A01 T01541041  RH  026%=      5-min Rain = 0
KGU1 190947Z 03002KT 16/M04 A3007 RMK A01 T01571041  RH  025%=      5-min Rain = 0
KGU1 190948Z 36003KT 16/M04 A3007 RMK A01 T01571041  RH  025%=      5-min Rain = 0
KGU1 190949Z 31003KT 16/M04 A3007 RMK A01 T01551042  RH  026%=      5-min Rain = 0
KGU1 190950Z 30004KT 15/M04 A3006 RMK A01 T01531042  RH  026%=      5-min Rain = 0
KGU1 190951Z 31003KT 16/M04 A3006 RMK A01 T01551041  RH  026%=      5-min Rain = 0
KGU1 190952Z 33002KT 16/M04 A3006 RMK A01 T01581041  RH  025%=      5-min Rain = 0
KGU1 190953Z 33001KT 16/M04 A3006 RMK A01 T01601042  RH  025%=      5-min Rain = 0
KGU1 190954Z 35001KT 16/M04 A3006 RMK A01 T01611041  RH  025%=      5-min Rain = 0
KGU1 190955Z 36001KT 16/M04 A3006 RMK A01 T01601042  RH  025%=      5-min Rain = 0
KGU1 190956Z 33003KT 16/M04 A3006 RMK A01 T01591041  RH  025%=      5-min Rain = 0
KGU1 190957Z 31003KT 15/M04 A3006 RMK A01 T01541041  RH  026%=      5-min Rain = 0
KGU1 190958Z 31004KT 15/M04 A3006 RMK A01 T01501042  RH  026%=      5-min Rain = 0
KGU1 190959Z 31004KT 15/M04 A3006 RMK A01 T01461042  RH  027%=      5-min Rain = 0
KGU1 191000Z 32003KT 15/M04 A3006 RMK A01 T01471043  RH  027%=      5-min Rain = 0
KGU1 191001Z 32003KT 15/M04 A3006 RMK A01 T01491043  RH  026%=      5-min Rain = 0
KGU1 191002Z 30004KT 15/M04 A3006 RMK A01 T01491043  RH  026%=      5-min Rain = 0
KGU1 191003Z 32004KT 15/M04 A3006 RMK A01 T01471044  RH  026%=      5-min Rain = 0
KGU1 191004Z 34001KT 15/M04 A3006 RMK A01 T01491043  RH  026%=      5-min Rain = 0
KGU1 191005Z 30002KT 15/M04 A3006 RMK A01 T01521043  RH  026%=      5-min Rain = 0
KGU1 191006Z 29001KT 15/M05 A3006 RMK A01 T01531046  RH  025%=      5-min Rain = 0
KGU1 191007Z 04001KT 16/M05 A3006 RMK A01 T01561046  RH  025%=      5-min Rain = 0
KGU1 191008Z 34003KT 16/M05 A3006 RMK A01 T01591045  RH  024%=      5-min Rain = 0
KGU1 191009Z 05003KT 16/M05 A3006 RMK A01 T01571048  RH  024%=      5-min Rain = 0
KGU1 191010Z 08003KT 16/M04 A3006 RMK A01 T01581044  RH  025%=      5-min Rain = 0
KGU1 191011Z 35001KT 16/M05 A3006 RMK A01 T01601045  RH  024%=      5-min Rain = 0
KGU1 191012Z 31002KT 15/M05 A3006 RMK A01 T01541050  RH  024%=      5-min Rain = 0
KGU1 191013Z 21001KT 15/M05 A3007 RMK A01 T01511050  RH  025%=      5-min Rain = 0
KGU1 191014Z 15001KT 15/M05 A3007 RMK A01 T01511049  RH  025%=      5-min Rain = 0
KGU1 191015Z 12002KT 15/M05 A3007 RMK A01 T01531047  RH  025%=      5-min Rain = 0
KGU1 191016Z 13001KT 16/M05 A3007 RMK A01 T01551047  RH  025%=      5-min Rain = 0
KGU1 191017Z 15001KT 15/M05 A3007 RMK A01 T01511049  RH  025%=      5-min Rain = 0
KGU1 191018Z 14004KT 15/M05 A3007 RMK A01 T01471047  RH  026%=      5-min Rain = 0
KGU1 191019Z 14004KT 15/M05 A3007 RMK A01 T01451045  RH  027%=      5-min Rain = 0
KGU1 191020Z 17003KT 14/M04 A3007 RMK A01 T01441043  RH  027%=      5-min Rain = 0
KGU1 191021Z 20003KT 14/M05 A3007 RMK A01 T01421045  RH  027%=      5-min Rain = 0
KGU1 191022Z 20004KT 14/M05 A3007 RMK A01 T01421045  RH  027%=      5-min Rain = 0
KGU1 191023Z 20004KT 14/M05 A3007 RMK A01 T01431045  RH  027%=      5-min Rain = 0
KGU1 191024Z 21006KT 14/M04 A3007 RMK A01 T01431044  RH  027%=      5-min Rain = 0
KGU1 191025Z 21006KT 14/M05 A3007 RMK A01 T01401045  RH  028%=      5-min Rain = 0
KGU1 191026Z 21007KT 14/M05 A3007 RMK A01 T01351045  RH  028%=      5-min Rain = 0
KGU1 191027Z 21007KT 13/M04 A3007 RMK A01 T01311043  RH  029%=      5-min Rain = 0
KGU1 191028Z 22008KT 13/M04 A3007 RMK A01 T01281042  RH  030%=      5-min Rain = 0
KGU1 191029Z 21006KT 13/M04 A3007 RMK A01 T01251041  RH  031%=      5-min Rain = 0
KGU1 191030Z 21006KT 12/M04 A3007 RMK A01 T01241042  RH  031%=      5-min Rain = 0
KGU1 191031Z 21006KT 12/M04 A3007 RMK A01 T01231041  RH  032%=      5-min Rain = 0
KGU1 191032Z 20007KT 12/M04 A3007 RMK A01 T01221041  RH  032%=      5-min Rain = 0
KGU1 191033Z 20007KT 12/M04 A3007 RMK A01 T01201041  RH  032%=      5-min Rain = 0
KGU1 191034Z 21007KT 12/M04 A3007 RMK A01 T01191041  RH  032%=      5-min Rain = 0
KGU1 191035Z 23005KT 12/M04 A3007 RMK A01 T01201041  RH  032%=      5-min Rain = 0
KGU1 191036Z 31004KT 12/M04 A3007 RMK A01 T01201042  RH  032%=      5-min Rain = 0
KGU1 191037Z 31005KT 12/M05 A3007 RMK A01 T01171045  RH  032%=      5-min Rain = 0
KGU1 191038Z 30003KT 12/M05 A3007 RMK A01 T01181046  RH  032%=      5-min Rain = 0
KGU1 191039Z 30003KT 12/M05 A3007 RMK A01 T01161046  RH  032%=      5-min Rain = 0
KGU1 191040Z 26003KT 11/M05 A3006 RMK A01 T01141046  RH  032%=      5-min Rain = 0
KGU1 191041Z 21002KT 12/M05 A3006 RMK A01 T01171046  RH  032%=      5-min Rain = 0
KGU1 191042Z 26002KT 12/M05 A3006 RMK A01 T01201046  RH  031%=      5-min Rain = 0
KGU1 191043Z 30003KT 12/M05 A3006 RMK A01 T01231048  RH  030%=      5-min Rain = 0
KGU1 191044Z 30003KT 12/M05 A3006 RMK A01 T01231048  RH  030%=      5-min Rain = 0
KGU1 191045Z 28003KT 12/M05 A3006 RMK A01 T01201048  RH  031%=      5-min Rain = 0
KGU1 191046Z 30004KT 12/M05 A3006 RMK A01 T01201049  RH  031%=      5-min Rain = 0
KGU1 191047Z 30004KT 12/M05 A3006 RMK A01 T01221049  RH  030%=      5-min Rain = 0
KGU1 191048Z 28003KT 12/M05 A3006 RMK A01 T01221048  RH  030%=      5-min Rain = 0
KGU1 191049Z 27002KT 12/M05 A3006 RMK A01 T01201048  RH  031%=      5-min Rain = 0
KGU1 191050Z 29003KT 12/M05 A3006 RMK A01 T01191048  RH  031%=      5-min Rain = 0
KGU1 191051Z 29004KT 12/M05 A3006 RMK A01 T01171048  RH  031%=      5-min Rain = 0
KGU1 191052Z 29003KT 11/M05 A3006 RMK A01 T01141048  RH  032%=      5-min Rain = 0
KGU1 191053Z 28003KT 11/M05 A3006 RMK A01 T01131048  RH  032%=      5-min Rain = 0
KGU1 191054Z 29004KT 11/M05 A3006 RMK A01 T01111048  RH  033%=      5-min Rain = 0
KGU1 191055Z 29006KT 11/M05 A3006 RMK A01 T01091048  RH  033%=      5-min Rain = 0
KGU1 191056Z 30006KT 11/M05 A3006 RMK A01 T01071049  RH  033%=      5-min Rain = 0
KGU1 191057Z 31004KT 11/M05 A3006 RMK A01 T01061048  RH  033%=      5-min Rain = 0
KGU1 191058Z 31004KT 11/M05 A3006 RMK A01 T01061049  RH  034%=      5-min Rain = 0
KGU1 191059Z 33002KT 11/M05 A3006 RMK A01 T01071048  RH  033%=      5-min Rain = 0
KGU1 191100Z 34002KT 11/M05 A3006 RMK A01 T01101049  RH  032%=      5-min Rain = 0
KGU1 191101Z 31001KT 11/M05 A3006 RMK A01 T01141049  RH  032%=      5-min Rain = 0
KGU1 191102Z 27001KT 12/M05 A3006 RMK A01 T01171049  RH  031%=      5-min Rain = 0
KGU1 191103Z 25003KT 12/M05 A3006 RMK A01 T01181049  RH  031%=      5-min Rain = 0
KGU1 191104Z 27006KT 12/M05 A3006 RMK A01 T01171049  RH  031%=      5-min Rain = 0
KGU1 191105Z 28006KT 11/M05 A3006 RMK A01 T01141049  RH  032%=      5-min Rain = 0
KGU1 191106Z 28006KT 11/M05 A3006 RMK A01 T01131050  RH  032%=      5-min Rain = 0
KGU1 191107Z 27004KT 12/M05 A3006 RMK A01 T01151051  RH  031%=      5-min Rain = 0
KGU1 191108Z 27004KT 12/M05 A3006 RMK A01 T01181051  RH  030%=      5-min Rain = 0
KGU1 191109Z 27003KT 12/M05 A3006 RMK A01 T01201051  RH  030%=      5-min Rain = 0
KGU1 191110Z 26002KT 12/M05 A3006 RMK A01 T01211051  RH  030%=      5-min Rain = 0
KGU1 191111Z 23002KT 12/M05 A3006 RMK A01 T01221052  RH  029%=      5-min Rain = 0
KGU1 191112Z 23002KT 13/M05 A3006 RMK A01 T01271052  RH  028%=      5-min Rain = 0
KGU1 191113Z 20002KT 13/M05 A3006 RMK A01 T01311051  RH  028%=      5-min Rain = 0
KGU1 191114Z 16001KT 14/M05 A3006 RMK A01 T01361049  RH  027%=      5-min Rain = 0
KGU1 191115Z 28005KT 14/M05 A3006 RMK A01 T01371049  RH  027%=      5-min Rain = 0
KGU1 191116Z 28007KT 13/M05 A3006 RMK A01 T01291049  RH  029%=      5-min Rain = 0
KGU1 191117Z 27005KT 12/M05 A3006 RMK A01 T01211049  RH  030%=      5-min Rain = 0
KGU1 191118Z 24005KT 12/M05 A3006 RMK A01 T01171048  RH  031%=      5-min Rain = 0
KGU1 191119Z 23004KT 12/M05 A3006 RMK A01 T01171048  RH  031%=      5-min Rain = 0
KGU1 191120Z 25003KT 12/M05 A3005 RMK A01 T01211048  RH  030%=      5-min Rain = 0
KGU1 191121Z 27002KT 13/M05 A3005 RMK A01 T01281050  RH  029%=      5-min Rain = 0
KGU1 191122Z 30001KT 14/M05 A3005 RMK A01 T01361050  RH  027%=      5-min Rain = 0
KGU1 191123Z 29001KT 14/M05 A3005 RMK A01 T01371047  RH  028%=      5-min Rain = 0
KGU1 191124Z 30004KT 13/M05 A3005 RMK A01 T01281046  RH  030%=      5-min Rain = 0
KGU1 191125Z 30005KT 12/M05 A3005 RMK A01 T01161046  RH  032%=      5-min Rain = 0
KGU1 191126Z 31004KT 11/M05 A3005 RMK A01 T01121046  RH  033%=      5-min Rain = 0
KGU1 191127Z 32003KT 11/M05 A3005 RMK A01 T01121046  RH  033%=      5-min Rain = 0
KGU1 191128Z 35002KT 11/M05 A3005 RMK A01 T01111046  RH  033%=      5-min Rain = 0
KGU1 191129Z 34001KT 11/M05 A3005 RMK A01 T01101046  RH  033%=      5-min Rain = 0
KGU1 191130Z 27001KT 11/M05 A3005 RMK A01 T01101047  RH  033%=      5-min Rain = 0
KGU1 191131Z 27002KT 11/M05 A3005 RMK A01 T01131046  RH  033%=      5-min Rain = 0
KGU1 191132Z 28005KT 11/M05 A3005 RMK A01 T01141046  RH  032%=      5-min Rain = 0
KGU1 191133Z 29004KT 11/M05 A3005 RMK A01 T01141047  RH  032%=      5-min Rain = 0
KGU1 191134Z 28004KT 12/M05 A3005 RMK A01 T01181051  RH  030%=      5-min Rain = 0
KGU1 191135Z 28004KT 12/M05 A3005 RMK A01 T01241050  RH  029%=      5-min Rain = 0
KGU1 191136Z 29004KT 13/M05 A3005 RMK A01 T01251050  RH  029%=      5-min Rain = 0
KGU1 191137Z 33003KT 13/M05 A3005 RMK A01 T01251049  RH  029%=      5-min Rain = 0
KGU1 191138Z 34003KT 12/M05 A3005 RMK A01 T01241048  RH  030%=      5-min Rain = 0
KGU1 191139Z 34001KT 13/M05 A3005 RMK A01 T01301050  RH  028%=      5-min Rain = 0
KGU1 191140Z 20002G7KT 14/M05 A3005 RMK A01 T01351048  RH  028%=      5-min Rain = 0
KGU1 191141Z 20005KT 13/M05 A3005 RMK A01 T01311046  RH  029%=      5-min Rain = 0
KGU1 191142Z 22004KT 13/M05 A3005 RMK A01 T01281045  RH  030%=      5-min Rain = 0
KGU1 191143Z 25004KT 13/M05 A3005 RMK A01 T01281045  RH  030%=      5-min Rain = 0
KGU1 191144Z 27006KT 13/M05 A3005 RMK A01 T01281046  RH  029%=      5-min Rain = 0
KGU1 191145Z 27006KT 13/M05 A3005 RMK A01 T01271047  RH  030%=      5-min Rain = 0
KGU1 191146Z 28005KT 13/M05 A3005 RMK A01 T01251048  RH  030%=      5-min Rain = 0
KGU1 191147Z 27004KT 13/M05 A3005 RMK A01 T01251049  RH  029%=      5-min Rain = 0
KGU1 191148Z 25005KT 12/M05 A3005 RMK A01 T01241049  RH  030%=      5-min Rain = 0
KGU1 191149Z 22007KT 12/M05 A3005 RMK A01 T01241049  RH  030%=      5-min Rain = 0
KGU1 191150Z 21007KT 13/M05 A3005 RMK A01 T01251046  RH  030%=      5-min Rain = 0
KGU1 191151Z 21006KT 12/M04 A3005 RMK A01 T01241043  RH  031%=      5-min Rain = 0
KGU1 191152Z 21005KT 12/M04 A3004 RMK A01 T01231043  RH  031%=      5-min Rain = 0
KGU1 191153Z 21006KT 12/M04 A3004 RMK A01 T01231042  RH  032%=      5-min Rain = 0
KGU1 191154Z 20006KT 12/M04 A3004 RMK A01 T01211042  RH  032%=      5-min Rain = 0
KGU1 191155Z 22008KT 12/M04 A3004 RMK A01 T01201040  RH  032%=      5-min Rain = 0
KGU1 191156Z 22007KT 12/M04 A3004 RMK A01 T01181040  RH  033%=      5-min Rain = 0
KGU1 191157Z 22006KT 12/M04 A3005 RMK A01 T01161039  RH  034%=      5-min Rain = 0
KGU1 191158Z 22006KT 11/M04 A3005 RMK A01 T01141039  RH  034%=      5-min Rain = 0
KGU1 191159Z 21006KT 11/M04 A3005 RMK A01 T01121039  RH  035%=      5-min Rain = 0
KGU1 191200Z 21007KT 11/M04 A3005 RMK A01 T01101039  RH  035%=      5-min Rain = 0
KGU1 191201Z 21009KT 11/M04 A3005 RMK A01 T01091039  RH  036%=      5-min Rain = 0
KGU1 191202Z 21009KT 11/M04 A3005 RMK A01 T01071038  RH  036%=      5-min Rain = 0
KGU1 191203Z 21009KT 11/M04 A3005 RMK A01 T01061039  RH  036%=      5-min Rain = 0
KGU1 191204Z 21009KT 11/M04 A3005 RMK A01 T01061039  RH  036%=      5-min Rain = 0
KGU1 191205Z 21009KT 11/M04 A3005 RMK A01 T01061039  RH  036%=      5-min Rain = 0
KGU1 191206Z 21008KT 11/M04 A3005 RMK A01 T01061040  RH  036%=      5-min Rain = 0
KGU1 191207Z 22007KT 11/M04 A3005 RMK A01 T01061040  RH  036%=      5-min Rain = 0
KGU1 191208Z 23004KT 11/M04 A3005 RMK A01 T01061040  RH  036%=      5-min Rain = 0
KGU1 191209Z 22006KT 11/M04 A3005 RMK A01 T01061040  RH  036%=      5-min Rain = 0
KGU1 191210Z 22006KT 11/M04 A3005 RMK A01 T01051040  RH  036%=      5-min Rain = 0
KGU1 191211Z 22005KT 11/M04 A3005 RMK A01 T01071041  RH  035%=      5-min Rain = 0
KGU1 191212Z 22007KT 11/M04 A3005 RMK A01 T01081041  RH  035%=      5-min Rain = 0
KGU1 191213Z 23006KT 11/M04 A3005 RMK A01 T01071040  RH  035%=      5-min Rain = 0
KGU1 191214Z 26005KT 11/M04 A3005 RMK A01 T01061040  RH  036%=      5-min Rain = 0
KGU1 191215Z 26004KT 11/M04 A3005 RMK A01 T01051040  RH  036%=      5-min Rain = 0
KGU1 191216Z 25003KT 11/M04 A3005 RMK A01 T01051041  RH  036%=      5-min Rain = 0
KGU1 191217Z 22003KT 11/M04 A3005 RMK A01 T01051041  RH  036%=      5-min Rain = 0
KGU1 191218Z 22004KT 11/M04 A3005 RMK A01 T01051041  RH  036%=      5-min Rain = 0
KGU1 191219Z 26004KT 11/M04 A3005 RMK A01 T01051042  RH  036%=      5-min Rain = 0
KGU1 191220Z 28004KT 10/M04 A3005 RMK A01 T01031041  RH  036%=      5-min Rain = 0
KGU1 191221Z 23003KT 10/M04 A3005 RMK A01 T01021043  RH  036%=      5-min Rain = 0
KGU1 191222Z 22004KT 11/M04 A3005 RMK A01 T01051042  RH  035%=      5-min Rain = 0
KGU1 191223Z 22006KT 11/M04 A3005 RMK A01 T01061042  RH  035%=      5-min Rain = 0
KGU1 191224Z 23005KT 11/M04 A3005 RMK A01 T01051041  RH  036%=      5-min Rain = 0
KGU1 191225Z 24004KT 11/M04 A3005 RMK A01 T01051042  RH  036%=      5-min Rain = 0
KGU1 191226Z 24003KT 11/M04 A3005 RMK A01 T01051042  RH  035%=      5-min Rain = 0
KGU1 191227Z 25005KT 11/M04 A3005 RMK A01 T01071043  RH  035%=      5-min Rain = 0
KGU1 191228Z 25005KT 11/M04 A3005 RMK A01 T01081043  RH  035%=      5-min Rain = 0
KGU1 191229Z 23004KT 11/M04 A3005 RMK A01 T01071042  RH  035%=      5-min Rain = 0
KGU1 191230Z 23004KT 10/M04 A3005 RMK A01 T01041042  RH  036%=      5-min Rain = 0
KGU1 191231Z 23005KT 10/M04 A3005 RMK A01 T01021043  RH  036%=      5-min Rain = 0
KGU1 191232Z 24004KT 10/M04 A3005 RMK A01 T01041044  RH  035%=      5-min Rain = 0
KGU1 191233Z 27004KT 11/M05 A3005 RMK A01 T01081046  RH  034%=      5-min Rain = 0
KGU1 191234Z 28005KT 11/M05 A3005 RMK A01 T01091045  RH  034%=      5-min Rain = 0
KGU1 191235Z 29003KT 11/M05 A3005 RMK A01 T01071045  RH  034%=      5-min Rain = 0
KGU1 191236Z 27002KT 11/M04 A3005 RMK A01 T01061044  RH  035%=      5-min Rain = 0
KGU1 191237Z 27003KT 10/M04 A3005 RMK A01 T01041044  RH  035%=      5-min Rain = 0
KGU1 191238Z 28002KT 10/M04 A3005 RMK A01 T00991043  RH  037%=      5-min Rain = 0
KGU1 191239Z 21002KT 10/M04 A3005 RMK A01 T00981044  RH  037%=      5-min Rain = 0
KGU1 191240Z 20005KT 10/M04 A3005 RMK A01 T00991044  RH  036%=      5-min Rain = 0
KGU1 191241Z 21007KT 10/M05 A3005 RMK A01 T01021045  RH  035%=      5-min Rain = 0
KGU1 191242Z 20007KT 11/M05 A3005 RMK A01 T01061045  RH  034%=      5-min Rain = 0
KGU1 191243Z 20007KT 11/M04 A3005 RMK A01 T01101044  RH  034%=      5-min Rain = 0
KGU1 191244Z 22007KT 11/M04 A3005 RMK A01 T01111044  RH  034%=      5-min Rain = 0
KGU1 191245Z 23006KT 11/M04 A3005 RMK A01 T01111043  RH  034%=      5-min Rain = 0
KGU1 191246Z 22008KT 11/M04 A3005 RMK A01 T01091042  RH  034%=      5-min Rain = 0
KGU1 191247Z 23006KT 11/M04 A3005 RMK A01 T01091043  RH  034%=      5-min Rain = 0
KGU1 191248Z 22007KT 11/M04 A3005 RMK A01 T01101043  RH  034%=      5-min Rain = 0
KGU1 191249Z 21007KT 11/M04 A3005 RMK A01 T01111042  RH  034%=      5-min Rain = 0
KGU1 191250Z 22007KT 11/M04 A3005 RMK A01 T01111042  RH  034%=      5-min Rain = 0
KGU1 191251Z 24008KT 11/M04 A3005 RMK A01 T01121044  RH  033%=      5-min Rain = 0
KGU1 191252Z 22007KT 12/M05 A3005 RMK A01 T01221047  RH  031%=      5-min Rain = 0
KGU1 191253Z 25007KT 13/M05 A3005 RMK A01 T01281048  RH  029%=      5-min Rain = 0
KGU1 191254Z 24005KT 13/M05 A3005 RMK A01 T01331051  RH  027%=      5-min Rain = 0
KGU1 191255Z 23003KT 14/M05 A3005 RMK A01 T01391053  RH  026%=      5-min Rain = 0
KGU1 191256Z 24005KT 14/M05 A3005 RMK A01 T01401049  RH  027%=      5-min Rain = 0
KGU1 191257Z 26006KT 13/M05 A3006 RMK A01 T01331045  RH  029%=      5-min Rain = 0
KGU1 191258Z 21007KT 13/M04 A3006 RMK A01 T01271044  RH  030%=      5-min Rain = 0
KGU1 191259Z 22008KT 12/M04 A3005 RMK A01 T01231043  RH  031%=      5-min Rain = 0
KGU1 191300Z 21008KT 12/M04 A3005 RMK A01 T01181043  RH  032%=      5-min Rain = 0
KGU1 191301Z 21008KT 12/M04 A3005 RMK A01 T01171044  RH  032%=      5-min Rain = 0
KGU1 191302Z 22006KT 12/M05 A3005 RMK A01 T01171045  RH  032%=      5-min Rain = 0
KGU1 191303Z 21005KT 12/M05 A3005 RMK A01 T01201047  RH  031%=      5-min Rain = 0
KGU1 191304Z 24005KT 12/M05 A3005 RMK A01 T01221046  RH  031%=      5-min Rain = 0
KGU1 191305Z 23005KT 12/M05 A3006 RMK A01 T01221050  RH  030%=      5-min Rain = 0
KGU1 191306Z 24005KT 13/M05 A3006 RMK A01 T01261048  RH  030%=      5-min Rain = 0
KGU1 191307Z 23004KT 13/M05 A3006 RMK A01 T01271047  RH  029%=      5-min Rain = 0
KGU1 191308Z 23003KT 13/M05 A3006 RMK A01 T01281048  RH  029%=      5-min Rain = 0
KGU1 191309Z 26004KT 13/M05 A3006 RMK A01 T01281048  RH  029%=      5-min Rain = 0
KGU1 191310Z 24002KT 13/M05 A3006 RMK A01 T01271048  RH  029%=      5-min Rain = 0
KGU1 191311Z 19005KT 13/M05 A3006 RMK A01 T01271049  RH  029%=      5-min Rain = 0
KGU1 191312Z 19006KT 13/M05 A3006 RMK A01 T01311052  RH  028%=      5-min Rain = 0
KGU1 191313Z 21006KT 14/M06 A3006 RMK A01 T01351055  RH  026%=      5-min Rain = 0
KGU1 191314Z 21007KT 14/M06 A3006 RMK A01 T01371056  RH  026%=      5-min Rain = 0
KGU1 191315Z 21007KT 14/M06 A3006 RMK A01 T01371055  RH  026%=      5-min Rain = 0
KGU1 191316Z 20005KT 14/M06 A3006 RMK A01 T01391056  RH  025%=      5-min Rain = 0
KGU1 191317Z 22006KT 14/M06 A3006 RMK A01 T01431059  RH  024%=      5-min Rain = 0
KGU1 191318Z 19005KT 15/M07 A3006 RMK A01 T01481066  RH  022%=      5-min Rain = 0
KGU1 191319Z 18006KT 15/M06 A3006 RMK A01 T01501056  RH  024%=      5-min Rain = 0
KGU1 191320Z 22005KT 15/M06 A3006 RMK A01 T01451056  RH  024%=      5-min Rain = 0
KGU1 191321Z 25005KT 14/M06 A3006 RMK A01 T01431056  RH  025%=      5-min Rain = 0
KGU1 191322Z 25003KT 14/M06 A3006 RMK A01 T01421059  RH  024%=      5-min Rain = 0
KGU1 191323Z 22006KT 14/M06 A3006 RMK A01 T01431058  RH  024%=      5-min Rain = 0
KGU1 191324Z 23004KT 15/M06 A3006 RMK A01 T01451062  RH  023%=      5-min Rain = 0
KGU1 191325Z 24005KT 15/M06 A3006 RMK A01 T01481063  RH  023%=      5-min Rain = 0
KGU1 191326Z 26005KT 15/M06 A3006 RMK A01 T01491062  RH  023%=      5-min Rain = 0
KGU1 191327Z 25004KT 15/M06 A3006 RMK A01 T01481060  RH  023%=      5-min Rain = 0
KGU1 191328Z 25003KT 15/M06 A3006 RMK A01 T01451057  RH  024%=      5-min Rain = 0
KGU1 191329Z 24005KT 14/M05 A3006 RMK A01 T01431053  RH  025%=      5-min Rain = 0
KGU1 191330Z 21006KT 14/M05 A3006 RMK A01 T01411053  RH  026%=      5-min Rain = 0
KGU1 191331Z 25004KT 14/M06 A3006 RMK A01 T01441056  RH  025%=      5-min Rain = 0
KGU1 191332Z 23005KT 15/M06 A3006 RMK A01 T01471064  RH  023%=      5-min Rain = 0
KGU1 191333Z 29005KT 15/M07 A3006 RMK A01 T01511065  RH  022%=      5-min Rain = 0
KGU1 191334Z 28006KT 15/M06 A3006 RMK A01 T01511064  RH  022%=      5-min Rain = 0
KGU1 191335Z 27007KT 15/M06 A3006 RMK A01 T01491064  RH  023%=      5-min Rain = 0
KGU1 191336Z 27008KT 15/M06 A3006 RMK A01 T01491064  RH  023%=      5-min Rain = 0
KGU1 191337Z 25007KT 15/M06 A3006 RMK A01 T01511064  RH  022%=      5-min Rain = 0
KGU1 191338Z 28005KT 15/M06 A3006 RMK A01 T01541064  RH  022%=      5-min Rain = 0
KGU1 191339Z 30008KT 15/M06 A3006 RMK A01 T01531064  RH  022%=      5-min Rain = 0
KGU1 191340Z 30008KT 15/M07 A3006 RMK A01 T01531065  RH  022%=      5-min Rain = 0
KGU1 191341Z 31006KT 16/M07 A3006 RMK A01 T01571067  RH  021%=      5-min Rain = 0
KGU1 191342Z 29007KT 16/M07 A3006 RMK A01 T01581066  RH  021%=      5-min Rain = 0
KGU1 191343Z 25007KT 16/M06 A3006 RMK A01 T01561062  RH  022%=      5-min Rain = 0
KGU1 191344Z 22005KT 15/M06 A3006 RMK A01 T01531058  RH  023%=      5-min Rain = 0
KGU1 191345Z 26004KT 15/M06 A3006 RMK A01 T01491056  RH  024%=      5-min Rain = 0
KGU1 191346Z 29004KT 15/M06 A3006 RMK A01 T01481062  RH  023%=      5-min Rain = 0
KGU1 191347Z 27005KT 15/M06 A3006 RMK A01 T01491063  RH  023%=      5-min Rain = 0
KGU1 191348Z 30005KT 15/M06 A3006 RMK A01 T01511062  RH  022%=      5-min Rain = 0
KGU1 191349Z 26006KT 15/M06 A3006 RMK A01 T01501061  RH  023%=      5-min Rain = 0
KGU1 191350Z 23006KT 15/M06 A3006 RMK A01 T01471058  RH  024%=      5-min Rain = 0
KGU1 191351Z 22006KT 14/M06 A3006 RMK A01 T01431056  RH  025%=      5-min Rain = 0
KGU1 191352Z 24004KT 14/M06 A3006 RMK A01 T01431060  RH  024%=      5-min Rain = 0
KGU1 191353Z 21007KT 15/M06 A3006 RMK A01 T01451058  RH  024%=      5-min Rain = 0
KGU1 191354Z 21006KT 14/M05 A3006 RMK A01 T01411054  RH  025%=      5-min Rain = 0
KGU1 191355Z 25005KT 14/M06 A3006 RMK A01 T01411059  RH  025%=      5-min Rain = 0
KGU1 191356Z 25006KT 14/M06 A3006 RMK A01 T01441060  RH  024%=      5-min Rain = 0
KGU1 191357Z 24005KT 15/M06 A3006 RMK A01 T01481062  RH  023%=      5-min Rain = 0
KGU1 191358Z 27003KT 15/M06 A3006 RMK A01 T01501061  RH  023%=      5-min Rain = 0
KGU1 191359Z 27003KT 15/M06 A3006 RMK A01 T01501062  RH  023%=      5-min Rain = 0
KGU1 191400Z 31003KT 15/M06 A3006 RMK A01 T01501064  RH  022%=      5-min Rain = 0
KGU1 191401Z 23004KT 15/M06 A3006 RMK A01 T01511064  RH  022%=      5-min Rain = 0
KGU1 191402Z 26005KT 15/M06 A3006 RMK A01 T01531064  RH  022%=      5-min Rain = 0
KGU1 191403Z 21005KT 15/M06 A3006 RMK A01 T01541062  RH  022%=      5-min Rain = 0
KGU1 191404Z 21005KT 15/M06 A3006 RMK A01 T01501055  RH  024%=      5-min Rain = 0
KGU1 191405Z 22006KT 14/M05 A3007 RMK A01 T01441052  RH  025%=      5-min Rain = 0
KGU1 191406Z 21007KT 14/M05 A3006 RMK A01 T01411052  RH  026%=      5-min Rain = 0
KGU1 191407Z 24006KT 14/M05 A3006 RMK A01 T01401053  RH  026%=      5-min Rain = 0
KGU1 191408Z 20004KT 14/M06 A3006 RMK A01 T01441058  RH  024%=      5-min Rain = 0
KGU1 191409Z 20003KT 15/M05 A3006 RMK A01 T01471054  RH  025%=      5-min Rain = 0
KGU1 191410Z 23004KT 15/M05 A3006 RMK A01 T01481053  RH  024%=      5-min Rain = 0
KGU1 191411Z 21004KT 15/M06 A3006 RMK A01 T01511056  RH  024%=      5-min Rain = 0
KGU1 191412Z 19006KT 15/M05 A3006 RMK A01 T01521054  RH  024%=      5-min Rain = 0
KGU1 191413Z 18005KT 15/M05 A3006 RMK A01 T01511053  RH  024%=      5-min Rain = 0
KGU1 191414Z 22004KT 15/M05 A3007 RMK A01 T01501050  RH  025%=      5-min Rain = 0
KGU1 191415Z 24006KT 15/M05 A3007 RMK A01 T01481051  RH  025%=      5-min Rain = 0
KGU1 191416Z 23005KT 15/M05 A3006 RMK A01 T01501054  RH  024%=      5-min Rain = 0
KGU1 191417Z 20009KT 15/M05 A3006 RMK A01 T01511051  RH  024%=      5-min Rain = 0
KGU1 191418Z 22006KT 15/M05 A3007 RMK A01 T01461046  RH  026%=      5-min Rain = 0
KGU1 191419Z 22005KT 14/M05 A3007 RMK A01 T01411046  RH  027%=      5-min Rain = 0
KGU1 191420Z 23008KT 14/M05 A3007 RMK A01 T01401048  RH  027%=      5-min Rain = 0
KGU1 191421Z 19007KT 14/M05 A3006 RMK A01 T01421052  RH  026%=      5-min Rain = 0
KGU1 191422Z 21008KT 15/M05 A3006 RMK A01 T01491051  RH  025%=      5-min Rain = 0
KGU1 191423Z 21008KT 15/M05 A3007 RMK A01 T01461046  RH  026%=      5-min Rain = 0
KGU1 191424Z 20008KT 14/M05 A3006 RMK A01 T01431048  RH  026%=      5-min Rain = 0
KGU1 191425Z 24003KT 15/M05 A3006 RMK A01 T01451049  RH  026%=      5-min Rain = 0
KGU1 191426Z 21007KT 15/M05 A3007 RMK A01 T01491051  RH  025%=      5-min Rain = 0
KGU1 191427Z 20008KT 15/M05 A3006 RMK A01 T01461047  RH  026%=      5-min Rain = 0
KGU1 191428Z 22006KT 14/M05 A3006 RMK A01 T01431046  RH  027%=      5-min Rain = 0
KGU1 191429Z 19007KT 15/M05 A3006 RMK A01 T01471050  RH  025%=      5-min Rain = 0
KGU1 191430Z 21007KT 15/M05 A3006 RMK A01 T01501047  RH  025%=      5-min Rain = 0
KGU1 191431Z 19004KT 15/M05 A3006 RMK A01 T01501046  RH  026%=      5-min Rain = 0
KGU1 191432Z 21007KT 15/M05 A3006 RMK A01 T01501047  RH  025%=      5-min Rain = 0
KGU1 191433Z 23006KT 16/M05 A3006 RMK A01 T01551053  RH  024%=      5-min Rain = 0
KGU1 191434Z 22008KT 16/M05 A3007 RMK A01 T01621053  RH  022%=      5-min Rain = 0
KGU1 191435Z 21006KT 16/M05 A3007 RMK A01 T01631050  RH  023%=      5-min Rain = 0
KGU1 191436Z 19006KT 16/M05 A3007 RMK A01 T01641051  RH  023%=      5-min Rain = 0
KGU1 191437Z 26004KT 17/M05 A3007 RMK A01 T01661051  RH  022%=      5-min Rain = 0
KGU1 191438Z 20003KT 17/M05 A3007 RMK A01 T01691054  RH  021%=      5-min Rain = 0
KGU1 191439Z 18004KT 17/M05 A3007 RMK A01 T01711051  RH  022%=      5-min Rain = 0
KGU1 191440Z 20004KT 17/M05 A3007 RMK A01 T01681049  RH  022%=      5-min Rain = 0
KGU1 191441Z 18006KT 16/M05 A3007 RMK A01 T01641048  RH  023%=      5-min Rain = 0
KGU1 191442Z 21005KT 16/M05 A3007 RMK A01 T01621048  RH  023%=      5-min Rain = 0
KGU1 191443Z 19003KT 16/M05 A3007 RMK A01 T01621051  RH  023%=      5-min Rain = 0
KGU1 191444Z 18006KT 16/M05 A3007 RMK A01 T01631048  RH  023%=      5-min Rain = 0
KGU1 191445Z 19008KT 16/M05 A3007 RMK A01 T01611045  RH  024%=      5-min Rain = 0
KGU1 191446Z 21004G9KT 16/M05 A3007 RMK A01 T01591049  RH  024%=      5-min Rain = 0
KGU1 191447Z 17004KT 16/M05 A3007 RMK A01 T01621050  RH  023%=      5-min Rain = 0
KGU1 191448Z 19005KT 17/M05 A3007 RMK A01 T01651048  RH  023%=      5-min Rain = 0
KGU1 191449Z 22004KT 17/M05 A3007 RMK A01 T01671050  RH  022%=      5-min Rain = 0
KGU1 191450Z 24004KT 17/M05 A3007 RMK A01 T01711054  RH  021%=      5-min Rain = 0
KGU1 191451Z 20003KT 18/M05 A3007 RMK A01 T01761053  RH  020%=      5-min Rain = 0
KGU1 191452Z 19006KT 18/M05 A3007 RMK A01 T01771051  RH  021%=      5-min Rain = 0
KGU1 191453Z 30005KT 18/M05 A3007 RMK A01 T01761052  RH  021%=      5-min Rain = 0
KGU1 191454Z 32004G9KT 18/M06 A3007 RMK A01 T01791056  RH  020%=      5-min Rain = 0
KGU1 191455Z 20004KT 18/M05 A3007 RMK A01 T01831053  RH  020%=      5-min Rain = 0
KGU1 191456Z 17004KT 18/M05 A3007 RMK A01 T01801045  RH  021%=      5-min Rain = 0
KGU1 191457Z 25003KT 18/M05 A3007 RMK A01 T01761045  RH  022%=      5-min Rain = 0
KGU1 191458Z 29008G13KT 18/M05 A3007 RMK A01 T01771054  RH  020%=      5-min Rain = 0
KGU1 191459Z 31007KT 18/M06 A3007 RMK A01 T01821058  RH  019%=      5-min Rain = 0
KGU1 191500Z 19005KT 19/M06 A3006 RMK A01 T01861056  RH  019%=      5-min Rain = 0
KGU1 191501Z 19004KT 19/M05 A3007 RMK A01 T01861049  RH  020%=      5-min Rain = 0
KGU1 191502Z 09003KT 18/M05 A3007 RMK A01 T01811050  RH  020%=      5-min Rain = 0
KGU1 191503Z 31005G10KT 18/M05 A3007 RMK A01 T01791049  RH  021%=      5-min Rain = 0
KGU1 191504Z 31007KT 18/M06 A3007 RMK A01 T01811056  RH  019%=      5-min Rain = 0
KGU1 191505Z 30009KT 19/M06 A3007 RMK A01 T01851057  RH  019%=      5-min Rain = 0
KGU1 191506Z 29011KT 19/M06 A3007 RMK A01 T01881057  RH  019%=      5-min Rain = 0
KGU1 191507Z 30013KT 19/M06 A3007 RMK A01 T01891059  RH  018%=      5-min Rain = 0
KGU1 191508Z 30013KT 19/M06 A3007 RMK A01 T01891061  RH  018%=      5-min Rain = 0
KGU1 191509Z 30008G13KT 19/M06 A3007 RMK A01 T01891059  RH  018%=      5-min Rain = 0
KGU1 191510Z 30011KT 19/M06 A3007 RMK A01 T01891058  RH  018%=      5-min Rain = 0
KGU1 191511Z 30012KT 19/M06 A3007 RMK A01 T01891058  RH  018%=      5-min Rain = 0
KGU1 191512Z 31012KT 19/M06 A3007 RMK A01 T01881060  RH  018%=      5-min Rain = 0
KGU1 191513Z 31010KT 19/M06 A3007 RMK A01 T01881060  RH  018%=      5-min Rain = 0
KGU1 191514Z 30013KT 19/M06 A3007 RMK A01 T01881061  RH  018%=      5-min Rain = 0
KGU1 191515Z 30010KT 19/M06 A3007 RMK A01 T01891059  RH  018%=      5-min Rain = 0
KGU1 191516Z 30008KT 19/M06 A3007 RMK A01 T01891059  RH  018%=      5-min Rain = 0
KGU1 191517Z 29012KT 19/M06 A3007 RMK A01 T01901059  RH  018%=      5-min Rain = 0
KGU1 191518Z 29012G17KT 19/M06 A3007 RMK A01 T01901058  RH  018%=      5-min Rain = 0
KGU1 191519Z 27012G17KT 19/M06 A3007 RMK A01 T01911056  RH  018%=      5-min Rain = 0
KGU1 191520Z 28012KT 19/M06 A3007 RMK A01 T01921056  RH  018%=      5-min Rain = 0
KGU1 191521Z 28011KT 19/M06 A3007 RMK A01 T01921057  RH  018%=      5-min Rain = 0
KGU1 191522Z 30012KT 19/M06 A3007 RMK A01 T01921056  RH  018%=      5-min Rain = 0
KGU1 191523Z 30007KT 19/M06 A3007 RMK A01 T01921056  RH  018%=      5-min Rain = 0
KGU1 191524Z 29010KT 19/M06 A3007 RMK A01 T01921056  RH  018%=      5-min Rain = 0
KGU1 191525Z 28013G18KT 19/M06 A3007 RMK A01 T01931056  RH  018%=      5-min Rain = 0
KGU1 191526Z 27013G18KT 19/M06 A3007 RMK A01 T01921058  RH  018%=      5-min Rain = 0
KGU1 191527Z 27010G15KT 19/M06 A3007 RMK A01 T01921057  RH  018%=      5-min Rain = 0
KGU1 191528Z 27012KT 19/M06 A3007 RMK A01 T01921056  RH  018%=      5-min Rain = 0
KGU1 191529Z 26008G13KT 19/M06 A3007 RMK A01 T01921057  RH  018%=      5-min Rain = 0
KGU1 191530Z 27009G16KT 19/M06 A3007 RMK A01 T01921055  RH  018%=      5-min Rain = 0
KGU1 191531Z 28011G17KT 19/M06 A3007 RMK A01 T01921055  RH  018%=      5-min Rain = 0
KGU1 191532Z 28007KT 19/M05 A3007 RMK A01 T01921054  RH  018%=      5-min Rain = 0
KGU1 191533Z 27010KT 19/M05 A3007 RMK A01 T01921053  RH  019%=      5-min Rain = 0
KGU1 191534Z 27008G13KT 19/M05 A3007 RMK A01 T01921052  RH  019%=      5-min Rain = 0
KGU1 191535Z 29009KT 19/M05 A3007 RMK A01 T01911052  RH  019%=      5-min Rain = 0
KGU1 191536Z 29013KT 19/M05 A3007 RMK A01 T01901053  RH  019%=      5-min Rain = 0
KGU1 191537Z 28008KT 19/M05 A3007 RMK A01 T01891052  RH  019%=      5-min Rain = 0
KGU1 191538Z 28011KT 19/M05 A3007 RMK A01 T01891052  RH  019%=      5-min Rain = 0
KGU1 191539Z 28016G21KT 19/M05 A3007 RMK A01 T01891053  RH  019%=      5-min Rain = 0
KGU1 191540Z 27013G18KT 19/M05 A3007 RMK A01 T01881054  RH  019%=      5-min Rain = 0
KGU1 191541Z 29013G18KT 19/M05 A3007 RMK A01 T01881054  RH  019%=      5-min Rain = 0
KGU1 191542Z 29011KT 19/M05 A3007 RMK A01 T01881054  RH  019%=      5-min Rain = 0
KGU1 191543Z 29012KT 19/M05 A3007 RMK A01 T01881053  RH  019%=      5-min Rain = 0
KGU1 191544Z 28013KT 19/M05 A3007 RMK A01 T01891053  RH  019%=      5-min Rain = 0
KGU1 191545Z 28008G14KT 19/M05 A3007 RMK A01 T01901052  RH  019%=      5-min Rain = 0
KGU1 191546Z 28007KT 19/M05 A3007 RMK A01 T01911050  RH  019%=      5-min Rain = 0
KGU1 191547Z 28013KT 19/M05 A3007 RMK A01 T01921052  RH  019%=      5-min Rain = 0
KGU1 191548Z 27013KT 19/M05 A3007 RMK A01 T01921053  RH  019%=      5-min Rain = 0
KGU1 191549Z 27013KT 19/M05 A3007 RMK A01 T01921052  RH  019%=      5-min Rain = 0
KGU1 191550Z 29013G18KT 19/M05 A3007 RMK A01 T01921052  RH  019%=      5-min Rain = 0
KGU1 191551Z 30011G16KT 19/M05 A3007 RMK A01 T01921053  RH  019%=      5-min Rain = 0
KGU1 191552Z 28013KT 19/M05 A3007 RMK A01 T01911053  RH  019%=      5-min Rain = 0
KGU1 191553Z 30011KT 19/M05 A3007 RMK A01 T01911052  RH  019%=      5-min Rain = 0
KGU1 191554Z 29014G19KT 19/M05 A3007 RMK A01 T01911052  RH  019%=      5-min Rain = 0
KGU1 191555Z 30012KT 19/M05 A3007 RMK A01 T01901053  RH  019%=      5-min Rain = 0
KGU1 191556Z 29011G17KT 19/M05 A3007 RMK A01 T01911050  RH  019%=      5-min Rain = 0
KGU1 191557Z 28009KT 19/M05 A3007 RMK A01 T01931048  RH  019%=      5-min Rain = 0
KGU1 191558Z 30011G16KT 19/M05 A3007 RMK A01 T01941050  RH  019%=      5-min Rain = 0
KGU1 191559Z 30010KT 19/M05 A3007 RMK A01 T01941050  RH  019%=      5-min Rain = 0
KGU1 191600Z 29011G17KT 19/M05 A3007 RMK A01 T01941049  RH  019%=      5-min Rain = 0
KGU1 191601Z 29012KT 19/M05 A3007 RMK A01 T01941050  RH  019%=      5-min Rain = 0
KGU1 191602Z 29012KT 19/M05 A3007 RMK A01 T01941050  RH  019%=      5-min Rain = 0
KGU1 191603Z 29011KT 19/M05 A3007 RMK A01 T01931050  RH  019%=      5-min Rain = 0
KGU1 191604Z 30008KT 19/M05 A3007 RMK A01 T01941049  RH  019%=      5-min Rain = 0
KGU1 191605Z 30013G18KT 20/M05 A3007 RMK A01 T01951049  RH  019%=      5-min Rain = 0
KGU1 191606Z 28014KT 20/M05 A3007 RMK A01 T01951051  RH  019%=      5-min Rain = 0
KGU1 191607Z 29010G18KT 19/M05 A3007 RMK A01 T01941051  RH  019%=      5-min Rain = 0
KGU1 191608Z 29014KT 19/M05 A3007 RMK A01 T01941051  RH  019%=      5-min Rain = 0
KGU1 191609Z 30017G25KT 20/M05 A3007 RMK A01 T01951051  RH  018%=      5-min Rain = 0
KGU1 191610Z 29014G19KT 20/M05 A3007 RMK A01 T01961051  RH  018%=      5-min Rain = 0
KGU1 191611Z 29016G23KT 20/M05 A3007 RMK A01 T01951052  RH  018%=      5-min Rain = 0
KGU1 191612Z 30017G22KT 20/M05 A3007 RMK A01 T01951052  RH  018%=      5-min Rain = 0
KGU1 191613Z 29011KT 20/M05 A3007 RMK A01 T01951050  RH  019%=      5-min Rain = 0
KGU1 191614Z 28016KT 20/M05 A3007 RMK A01 T01971049  RH  019%=      5-min Rain = 0
KGU1 191615Z 28019G25KT 20/M05 A3006 RMK A01 T01971051  RH  018%=      5-min Rain = 0
KGU1 191616Z 29014G20KT 20/M05 A3007 RMK A01 T01961050  RH  019%=      5-min Rain = 0
KGU1 191617Z 28012G21KT 20/M05 A3007 RMK A01 T01961050  RH  019%=      5-min Rain = 0
KGU1 191618Z 30017G24KT 20/M05 A3007 RMK A01 T01971050  RH  019%=      5-min Rain = 0
KGU1 191619Z 28015KT 19/M05 A3007 RMK A01 T01941051  RH  019%=      5-min Rain = 0
KGU1 191620Z 29020KT 19/M05 A3007 RMK A01 T01931051  RH  019%=      5-min Rain = 0
KGU1 191621Z 29017KT 19/M05 A3007 RMK A01 T01911052  RH  019%=      5-min Rain = 0
KGU1 191622Z 29014KT 19/M05 A3007 RMK A01 T01911051  RH  019%=      5-min Rain = 0
KGU1 191623Z 29015KT 19/M05 A3007 RMK A01 T01911051  RH  019%=      5-min Rain = 0
KGU1 191624Z 29017G22KT 19/M05 A3007 RMK A01 T01901051  RH  019%=      5-min Rain = 0
KGU1 191625Z 29015KT 19/M05 A3007 RMK A01 T01901050  RH  019%=      5-min Rain = 0
KGU1 191626Z 28017G22KT 19/M05 A3006 RMK A01 T01901049  RH  019%=      5-min Rain = 0
KGU1 191627Z 28018KT 19/M05 A3007 RMK A01 T01891050  RH  019%=      5-min Rain = 0
KGU1 191628Z 28013KT 19/M05 A3007 RMK A01 T01891050  RH  019%=      5-min Rain = 0
KGU1 191629Z 27015G21KT 19/M05 A3007 RMK A01 T01901049  RH  019%=      5-min Rain = 0
KGU1 191630Z 28015KT 19/M05 A3007 RMK A01 T01911049  RH  019%=      5-min Rain = 0
KGU1 191631Z 28017KT 19/M05 A3007 RMK A01 T01911049  RH  019%=      5-min Rain = 0
KGU1 191632Z 28015G20KT 19/M05 A3007 RMK A01 T01901049  RH  019%=      5-min Rain = 0
KGU1 191633Z 28015G20KT 19/M05 A3007 RMK A01 T01891048  RH  020%=      5-min Rain = 0
KGU1 191634Z 28013KT 19/M05 A3007 RMK A01 T01901049  RH  019%=      5-min Rain = 0
KGU1 191635Z 28013KT 19/M05 A3007 RMK A01 T01921047  RH  020%=      5-min Rain = 0
KGU1 191636Z 29016G21KT 19/M05 A3007 RMK A01 T01921048  RH  019%=      5-min Rain = 0
KGU1 191637Z 29016G21KT 19/M05 A3007 RMK A01 T01921047  RH  019%=      5-min Rain = 0
KGU1 191638Z 29015G21KT 19/M05 A3007 RMK A01 T01931046  RH  020%=      5-min Rain = 0
KGU1 191639Z 28013G18KT 19/M05 A3007 RMK A01 T01931046  RH  020%=      5-min Rain = 0
KGU1 191640Z 30017G22KT 19/M05 A3007 RMK A01 T01941046  RH  019%=      5-min Rain = 0
KGU1 191641Z 30014KT 20/M05 A3007 RMK A01 T01951045  RH  019%=      5-min Rain = 0
KGU1 191642Z 29011G19KT 20/M04 A3007 RMK A01 T01981044  RH  019%=      5-min Rain = 0
KGU1 191643Z 29012G17KT 20/M04 A3007 RMK A01 T01991044  RH  019%=      5-min Rain = 0
KGU1 191644Z 30011KT 20/M04 A3007 RMK A01 T02001042  RH  019%=      5-min Rain = 0
KGU1 191645Z 29013G19KT 20/M04 A3006 RMK A01 T02021040  RH  019%=      5-min Rain = 0
KGU1 191646Z 29016KT 20/M04 A3007 RMK A01 T02001043  RH  019%=      5-min Rain = 0
KGU1 191647Z 29013KT 20/M04 A3007 RMK A01 T01971042  RH  020%=      5-min Rain = 0
KGU1 191648Z 29011G16KT 20/M04 A3007 RMK A01 T01961041  RH  020%=      5-min Rain = 0
KGU1 191649Z 30015KT 20/M04 A3007 RMK A01 T01961039  RH  020%=      5-min Rain = 0
KGU1 191650Z 28016KT 20/M04 A3006 RMK A01 T01951038  RH  020%=      5-min Rain = 0
KGU1 191651Z 29016KT 20/M04 A3006 RMK A01 T01951037  RH  021%=      5-min Rain = 0
KGU1 191652Z 29016G21KT 20/M04 A3007 RMK A01 T01951036  RH  021%=      5-min Rain = 0
KGU1 191653Z 30016G22KT 20/M04 A3006 RMK A01 T01951035  RH  021%=      5-min Rain = 0
KGU1 191654Z 29016G22KT 20/M03 A3006 RMK A01 T01961034  RH  021%=      5-min Rain = 0
KGU1 191655Z 29015G20KT 20/M03 A3006 RMK A01 T01971031  RH  021%=      5-min Rain = 0
KGU1 191656Z 29015KT 20/M03 A3006 RMK A01 T01991030  RH  021%=      5-min Rain = 0
KGU1 191657Z 28018KT 20/M03 A3006 RMK A01 T02001031  RH  021%=      5-min Rain = 0
KGU1 191658Z 28013G18KT 20/M03 A3007 RMK A01 T02011029  RH  021%=      5-min Rain = 0
KGU1 191659Z 29014KT 20/M03 A3007 RMK A01 T02011029  RH  021%=      5-min Rain = 0
KGU1 191700Z 28014G19KT 20/M03 A3006 RMK A01 T02011030  RH  021%=      5-min Rain = 0
KGU1 191701Z 28013KT 20/M03 A3006 RMK A01 T02021031  RH  021%=      5-min Rain = 0
KGU1 191702Z 28010KT 20/M03 A3006 RMK A01 T02031029  RH  021%=      5-min Rain = 0
KGU1 191703Z 29009G14KT 21/M03 A3006 RMK A01 T02061028  RH  021%=      5-min Rain = 0
KGU1 191704Z 27009KT 21/M03 A3006 RMK A01 T02081029  RH  020%=      5-min Rain = 0
KGU1 191705Z 28013G18KT 21/M03 A3006 RMK A01 T02081028  RH  020%=      5-min Rain = 0
KGU1 191706Z 28016G22KT 21/M03 A3006 RMK A01 T02071032  RH  020%=      5-min Rain = 0
KGU1 191707Z 29015KT 20/M04 A3006 RMK A01 T02041036  RH  020%=      5-min Rain = 0
KGU1 191708Z 28012KT 20/M04 A3006 RMK A01 T02011035  RH  020%=      5-min Rain = 0
KGU1 191709Z 28012KT 20/M03 A3006 RMK A01 T02011034  RH  020%=      5-min Rain = 0
KGU1 191710Z 28009KT 20/M03 A3006 RMK A01 T02031033  RH  020%=      5-min Rain = 0
KGU1 191711Z 29012G17KT 21/M03 A3006 RMK A01 T02051031  RH  020%=      5-min Rain = 0
KGU1 191712Z 27010KT 21/M03 A3006 RMK A01 T02051032  RH  020%=      5-min Rain = 0
KGU1 191713Z 29010G16KT 21/M03 A3006 RMK A01 T02051031  RH  020%=      5-min Rain = 0
KGU1 191714Z 28012KT 21/M03 A3006 RMK A01 T02051032  RH  020%=      5-min Rain = 0
KGU1 191715Z 28011G18KT 21/M03 A3006 RMK A01 T02051033  RH  020%=      5-min Rain = 0
KGU1 191716Z 27013G18KT 20/M03 A3006 RMK A01 T02041034  RH  020%=      5-min Rain = 0
KGU1 191717Z 29011KT 20/M03 A3006 RMK A01 T02041032  RH  020%=      5-min Rain = 0
KGU1 191718Z 28010G15KT 21/M03 A3006 RMK A01 T02051033  RH  020%=      5-min Rain = 0
KGU1 191719Z 28008G13KT 21/M03 A3006 RMK A01 T02071032  RH  020%=      5-min Rain = 0
KGU1 191720Z 28013KT 21/M03 A3006 RMK A01 T02071032  RH  020%=      5-min Rain = 0
KGU1 191721Z 27016KT 21/M03 A3006 RMK A01 T02061032  RH  020%=      5-min Rain = 0
KGU1 191722Z 27013KT 20/M03 A3006 RMK A01 T02041033  RH  020%=      5-min Rain = 0
KGU1 191723Z 27015G22KT 20/M03 A3006 RMK A01 T02021033  RH  020%=      5-min Rain = 0
KGU1 191724Z 27018G24KT 20/M03 A3006 RMK A01 T02021033  RH  021%=      5-min Rain = 0
KGU1 191725Z 29018G25KT 20/M03 A3006 RMK A01 T02011033  RH  021%=      5-min Rain = 0
KGU1 191726Z 27015G21KT 20/M03 A3006 RMK A01 T02021032  RH  021%=      5-min Rain = 0
KGU1 191727Z 27011G16KT 20/M03 A3006 RMK A01 T02021034  RH  020%=      5-min Rain = 0
KGU1 191728Z 28011G17KT 20/M03 A3006 RMK A01 T02031032  RH  020%=      5-min Rain = 0
KGU1 191729Z 29015KT 20/M03 A3006 RMK A01 T02021034  RH  020%=      5-min Rain = 0
KGU1 191730Z 27014KT 20/M03 A3006 RMK A01 T02021033  RH  020%=      5-min Rain = 0
KGU1 191731Z 26015KT 20/M03 A3006 RMK A01 T02021034  RH  020%=      5-min Rain = 0
KGU1 191732Z 27013G20KT 20/M03 A3006 RMK A01 T02011034  RH  020%=      5-min Rain = 0
KGU1 191733Z 27009G15KT 20/M03 A3006 RMK A01 T02011032  RH  021%=      5-min Rain = 0
KGU1 191734Z 27012KT 20/M03 A3006 RMK A01 T02031030  RH  021%=      5-min Rain = 0
KGU1 191735Z 26011KT 20/M03 A3005 RMK A01 T02031030  RH  021%=      5-min Rain = 0
KGU1 191736Z 28018G25KT 20/M03 A3006 RMK A01 T02031028  RH  021%=      5-min Rain = 0
KGU1 191737Z 28018KT 20/M03 A3006 RMK A01 T02021027  RH  021%=      5-min Rain = 0
KGU1 191738Z 27013G20KT 20/M03 A3005 RMK A01 T02011027  RH  021%=      5-min Rain = 0
KGU1 191739Z 28008KT 20/M03 A3005 RMK A01 T02021025  RH  022%=      5-min Rain = 0
KGU1 191740Z 31010KT 20/M03 A3006 RMK A01 T02041025  RH  021%=      5-min Rain = 0
KGU1 191741Z 27008KT 20/M03 A3005 RMK A01 T02041026  RH  021%=      5-min Rain = 0
KGU1 191742Z 26010KT 20/M03 A3005 RMK A01 T02041025  RH  021%=      5-min Rain = 0
KGU1 191743Z 27010G16KT 21/M02 A3005 RMK A01 T02051024  RH  021%=      5-min Rain = 0
KGU1 191744Z 26012KT 20/M03 A3005 RMK A01 T02041025  RH  021%=      5-min Rain = 0
KGU1 191745Z 29010G15KT 20/M03 A3005 RMK A01 T02031026  RH  021%=      5-min Rain = 0
KGU1 191746Z 29010G15KT 20/M02 A3005 RMK A01 T02031024  RH  022%=      5-min Rain = 0
KGU1 191747Z 30009KT 20/M02 A3005 RMK A01 T02041024  RH  022%=      5-min Rain = 0
KGU1 191748Z 27008KT 21/M02 A3005 RMK A01 T02051023  RH  022%=      5-min Rain = 0
KGU1 191749Z 28014G19KT 21/M03 A3005 RMK A01 T02061025  RH  021%=      5-min Rain = 0
KGU1 191750Z 28014KT 20/M03 A3005 RMK A01 T02041026  RH  021%=      5-min Rain = 0
KGU1 191751Z 28012KT 20/M03 A3005 RMK A01 T02041026  RH  021%=      5-min Rain = 0
KGU1 191752Z 28011KT 21/M03 A3005 RMK A01 T02051026  RH  021%=      5-min Rain = 0
KGU1 191753Z 29012KT 21/M03 A3005 RMK A01 T02051026  RH  021%=      5-min Rain = 0
KGU1 191754Z 29015KT 20/M03 A3005 RMK A01 T02041028  RH  021%=      5-min Rain = 0
KGU1 191755Z 30013G19KT 20/M03 A3005 RMK A01 T02031029  RH  021%=      5-min Rain = 0
KGU1 191756Z 27008G13KT 20/M03 A3004 RMK A01 T02041027  RH  021%=      5-min Rain = 0
KGU1 191757Z 28016G21KT 20/M03 A3004 RMK A01 T02041028  RH  021%=      5-min Rain = 0
KGU1 191758Z 31012KT 20/M03 A3004 RMK A01 T02021027  RH  021%=      5-min Rain = 0
KGU1 191759Z 29012G17KT 20/M03 A3004 RMK A01 T02041026  RH  021%=      5-min Rain = 0
KGU1 191800Z 28009G14KT 21/M02 A3003 RMK A01 T02061024  RH  021%=      5-min Rain = 0
KGU1 191801Z 28013G20KT 21/M02 A3004 RMK A01 T02081022  RH  021%=      5-min Rain = 0
KGU1 191802Z 29015G25KT 21/M02 A3004 RMK A01 T02061024  RH  021%=      5-min Rain = 0
KGU1 191803Z 28014G23KT 21/M02 A3003 RMK A01 T02051023  RH  022%=      5-min Rain = 0
KGU1 191804Z 29016G21KT 21/M02 A3003 RMK A01 T02061024  RH  021%=      5-min Rain = 0
KGU1 191805Z 28018KT 21/M03 A3003 RMK A01 T02061026  RH  021%=      5-min Rain = 0
KGU1 191806Z 28014G19KT 21/M03 A3003 RMK A01 T02051026  RH  021%=      5-min Rain = 0
KGU1 191807Z 27016G21KT 21/M03 A3002 RMK A01 T02061026  RH  021%=      5-min Rain = 0
KGU1 191808Z 27016G21KT 21/M03 A3003 RMK A01 T02061025  RH  021%=      5-min Rain = 0
KGU1 191809Z 28019G24KT 21/M03 A3003 RMK A01 T02061027  RH  021%=      5-min Rain = 0
KGU1 191810Z 28017G23KT 21/M03 A3003 RMK A01 T02051026  RH  021%=      5-min Rain = 0
KGU1 191811Z 28016KT 21/M03 A3003 RMK A01 T02061026  RH  021%=      5-min Rain = 0
KGU1 191812Z 28017KT 21/M03 A3003 RMK A01 T02051026  RH  021%=      5-min Rain = 0
KGU1 191813Z 28020G26KT 21/M03 A3003 RMK A01 T02061025  RH  021%=      5-min Rain = 0
KGU1 191814Z 29020G26KT 21/M03 A3003 RMK A01 T02071025  RH  021%=      5-min Rain = 0
KGU1 191815Z 29017KT 21/M03 A3003 RMK A01 T02061027  RH  021%=      5-min Rain = 0
KGU1 191816Z 28019KT 21/M03 A3003 RMK A01 T02051028  RH  021%=      5-min Rain = 0
KGU1 191817Z 28018G23KT 21/M03 A3003 RMK A01 T02051027  RH  021%=      5-min Rain = 0
KGU1 191818Z 28015G20KT 21/M03 A3003 RMK A01 T02061027  RH  021%=      5-min Rain = 0
KGU1 191819Z 28015G26KT 21/M03 A3003 RMK A01 T02061028  RH  021%=      5-min Rain = 0
KGU1 191820Z 28019G24KT 21/M03 A3003 RMK A01 T02071030  RH  020%=      5-min Rain = 0
KGU1 191821Z 26016G26KT 21/M03 A3002 RMK A01 T02061032  RH  020%=      5-min Rain = 0
KGU1 191822Z 26017KT 21/M03 A3003 RMK A01 T02071032  RH  020%=      5-min Rain = 0
KGU1 191823Z 27015KT 21/M03 A3003 RMK A01 T02081033  RH  020%=      5-min Rain = 0
KGU1 191824Z 29016G21KT 21/M04 A3003 RMK A01 T02091035  RH  019%=      5-min Rain = 0
KGU1 191825Z 29016KT 21/M04 A3003 RMK A01 T02071037  RH  019%=      5-min Rain = 0
KGU1 191826Z 27012G17KT 21/M04 A3003 RMK A01 T02071036  RH  019%=      5-min Rain = 0
KGU1 191827Z 26017G24KT 21/M04 A3002 RMK A01 T02101036  RH  019%=      5-min Rain = 0
KGU1 191828Z 29011KT 21/M04 A3002 RMK A01 T02091038  RH  019%=      5-min Rain = 0
KGU1 191829Z 27011G20KT 21/M04 A3002 RMK A01 T02111035  RH  019%=      5-min Rain = 0
KGU1 191830Z 27016KT 21/M04 A3002 RMK A01 T02131035  RH  019%=      5-min Rain = 0
KGU1 191831Z 26016KT 21/M04 A3002 RMK A01 T02121035  RH  019%=      5-min Rain = 0
KGU1 191832Z 27014KT 21/M04 A3002 RMK A01 T02101036  RH  019%=      5-min Rain = 0
KGU1 191833Z 27011KT 21/M03 A3002 RMK A01 T02101034  RH  019%=      5-min Rain = 0
KGU1 191834Z 28010G15KT 21/M03 A3002 RMK A01 T02111034  RH  019%=      5-min Rain = 0
KGU1 191835Z 27011G19KT 21/M03 A3002 RMK A01 T02111033  RH  019%=      5-min Rain = 0
KGU1 191836Z 26019KT 21/M03 A3002 RMK A01 T02091033  RH  020%=      5-min Rain = 0
KGU1 191837Z 25014KT 21/M04 A3002 RMK A01 T02071035  RH  019%=      5-min Rain = 0
KGU1 191838Z 26014G23KT 21/M03 A3002 RMK A01 T02061034  RH  020%=      5-min Rain = 0
KGU1 191839Z 25010KT 21/M04 A3002 RMK A01 T02061035  RH  020%=      5-min Rain = 0
KGU1 191840Z 27012G21KT 21/M03 A3002 RMK A01 T02071032  RH  020%=      5-min Rain = 0
KGU1 191841Z 29017KT 21/M03 A3002 RMK A01 T02091030  RH  020%=      5-min Rain = 0
KGU1 191842Z 29019G25KT 21/M04 A3002 RMK A01 T02061037  RH  019%=      5-min Rain = 0
KGU1 191843Z 27015KT 21/M04 A3002 RMK A01 T02051037  RH  019%=      5-min Rain = 0
KGU1 191844Z 25016G21KT 21/M04 A3001 RMK A01 T02061039  RH  019%=      5-min Rain = 0
KGU1 191845Z 27015KT 21/M04 A3001 RMK A01 T02061036  RH  019%=      5-min Rain = 0
KGU1 191846Z 28014G23KT 21/M03 A3001 RMK A01 T02091032  RH  020%=      5-min Rain = 0
KGU1 191847Z 28015KT 21/M03 A3001 RMK A01 T02101032  RH  020%=      5-min Rain = 0
KGU1 191848Z 27010KT 21/M03 A3001 RMK A01 T02081031  RH  020%=      5-min Rain = 0
KGU1 191849Z 29016KT 21/M03 A3001 RMK A01 T02081031  RH  020%=      5-min Rain = 0
KGU1 191850Z 28013G19KT 21/M03 A3001 RMK A01 T02051032  RH  020%=      5-min Rain = 0
KGU1 191851Z 28012G19KT 21/M03 A3001 RMK A01 T02061030  RH  020%=      5-min Rain = 0
KGU1 191852Z 28010G19KT 21/M03 A3001 RMK A01 T02071028  RH  021%=      5-min Rain = 0
KGU1 191853Z 28015G21KT 21/M03 A3001 RMK A01 T02061027  RH  021%=      5-min Rain = 0
KGU1 191854Z 28009G15KT 20/M03 A3001 RMK A01 T02021026  RH  022%=      5-min Rain = 0
KGU1 191855Z 26015G20KT 20/M03 A3001 RMK A01 T02011025  RH  022%=      5-min Rain = 0
KGU1 191856Z 29012KT 20/M03 A3001 RMK A01 T02011025  RH  022%=      5-min Rain = 0
KGU1 191857Z 28013KT 20/M03 A3001 RMK A01 T02011027  RH  021%=      5-min Rain = 0
KGU1 191858Z 27014G20KT 20/M03 A3001 RMK A01 T01991026  RH  022%=      5-min Rain = 0
KGU1 191859Z 27016G23KT 20/M02 A3001 RMK A01 T01981022  RH  023%=      5-min Rain = 0
KGU1 191900Z 27017G24KT 20/M02 A3001 RMK A01 T01971021  RH  023%=      5-min Rain = 0
KGU1 191901Z 26019KT 20/M02 A30 RMK A01 T01961020  RH  023%=      5-min Rain = 0
KGU1 191902Z 26017G24KT 20/M03 A30 RMK A01 T01951025  RH  023%=      5-min Rain = 0
KGU1 191903Z 26018G24KT 19/M02 A30 RMK A01 T01941024  RH  023%=      5-min Rain = 0
KGU1 191904Z 26022G27KT 19/M02 A30 RMK A01 T01941021  RH  023%=      5-min Rain = 0
KGU1 191905Z 26017G22KT 19/M02 A30 RMK A01 T01941021  RH  023%=      5-min Rain = 0
KGU1 191906Z 27019G28KT 19/M02 A30 RMK A01 T01941022  RH  023%=      5-min Rain = 0
KGU1 191907Z 27017KT 19/M02 A30 RMK A01 T01941021  RH  023%=      5-min Rain = 0
KGU1 191908Z 27013G18KT 20/M02 A30 RMK A01 T01951021  RH  023%=      5-min Rain = 0
KGU1 191909Z 27018KT 20/M02 A30 RMK A01 T01951020  RH  023%=      5-min Rain = 0
KGU1 191910Z 26017G23KT 20/M02 A30 RMK A01 T01961019  RH  024%=      5-min Rain = 0
KGU1 191911Z 26015G21KT 20/M02 A30 RMK A01 T01971019  RH  023%=      5-min Rain = 0
KGU1 191912Z 28017KT 20/M02 A30 RMK A01 T01991020  RH  023%=      5-min Rain = 0
KGU1 191913Z 27016G21KT 20/M02 A30 RMK A01 T02011018  RH  023%=      5-min Rain = 0
KGU1 191914Z 28014G19KT 21/M02 A30 RMK A01 T02051018  RH  022%=      5-min Rain = 0
KGU1 191915Z 28016G22KT 21/M02 A30 RMK A01 T02101016  RH  022%=      5-min Rain = 0
KGU1 191916Z 26021G28KT 21/M02 A30 RMK A01 T02121017  RH  022%=      5-min Rain = 0
KGU1 191917Z 27019G24KT 21/M02 A2999 RMK A01 T02101022  RH  021%=      5-min Rain = 0
KGU1 191918Z 27016G24KT 21/M02 A2999 RMK A01 T02101020  RH  021%=      5-min Rain = 0
KGU1 191919Z 28015KT 21/M02 A30 RMK A01 T02131021  RH  021%=      5-min Rain = 0
KGU1 191920Z 28016G22KT 21/M02 A2999 RMK A01 T02101021  RH  021%=      5-min Rain = 0
KGU1 191921Z 27015G20KT 21/M02 A2999 RMK A01 T02071020  RH  022%=      5-min Rain = 0
KGU1 191922Z 27012G17KT 21/M02 A2999 RMK A01 T02081017  RH  022%=      5-min Rain = 0
KGU1 191923Z 28013G18KT 21/M02 A2999 RMK A01 T02131015  RH  022%=      5-min Rain = 0
KGU1 191924Z 28017KT 21/M02 A2999 RMK A01 T02141017  RH  021%=      5-min Rain = 0
KGU1 191925Z 28018G23KT 21/M02 A2999 RMK A01 T02121015  RH  022%=      5-min Rain = 0
KGU1 191926Z 27016G23KT 21/M01 A2999 RMK A01 T02131014  RH  022%=      5-min Rain = 0
KGU1 191927Z 26015G21KT 22/M01 A2999 RMK A01 T02151014  RH  022%=      5-min Rain = 0
KGU1 191928Z 30016G22KT 22/M01 A2999 RMK A01 T02171014  RH  022%=      5-min Rain = 0
KGU1 191929Z 28012KT 22/M01 A2999 RMK A01 T02171013  RH  022%=      5-min Rain = 0
KGU1 191930Z 28012G17KT 22/M01 A2999 RMK A01 T02191013  RH  021%=      5-min Rain = 0
KGU1 191931Z 27015G20KT 22/M01 A2999 RMK A01 T02191014  RH  021%=      5-min Rain = 0
KGU1 191932Z 27013G18KT 22/M02 A2999 RMK A01 T02191015  RH  021%=      5-min Rain = 0
KGU1 191933Z 27014G25KT 22/M02 A2999 RMK A01 T02201015  RH  021%=      5-min Rain = 0
KGU1 191934Z 28016G21KT 22/M02 A2999 RMK A01 T02181015  RH  021%=      5-min Rain = 0
KGU1 191935Z 27017G24KT 22/M02 A2998 RMK A01 T02201016  RH  021%=      5-min Rain = 0
KGU1 191936Z 27014G19KT 22/M02 A2999 RMK A01 T02181016  RH  021%=      5-min Rain = 0
KGU1 191937Z 27019G25KT 22/M02 A2998 RMK A01 T02171018  RH  021%=      5-min Rain = 0
KGU1 191938Z 26018G23KT 22/M02 A2998 RMK A01 T02171018  RH  021%=      5-min Rain = 0
KGU1 191939Z 26022G28KT 22/M02 A2998 RMK A01 T02151022  RH  020%=      5-min Rain = 0
KGU1 191940Z 26015G22KT 21/M02 A2998 RMK A01 T02131022  RH  021%=      5-min Rain = 0
KGU1 191941Z 26013G20KT 21/M02 A2998 RMK A01 T02131023  RH  021%=      5-min Rain = 0
KGU1 191942Z 27019KT 21/M02 A2998 RMK A01 T02121022  RH  021%=      5-min Rain = 0
KGU1 191943Z 27020KT 21/M02 A2998 RMK A01 T02131019  RH  021%=      5-min Rain = 0
KGU1 191944Z 26020KT 21/M02 A2998 RMK A01 T02131020  RH  021%=      5-min Rain = 0
KGU1 191945Z 26017G22KT 21/M02 A2997 RMK A01 T02101021  RH  021%=      5-min Rain = 0
KGU1 191946Z 26019G25KT 21/M02 A2997 RMK A01 T02101018  RH  022%=      5-min Rain = 0
KGU1 191947Z 26017KT 21/M02 A2997 RMK A01 T02111020  RH  021%=      5-min Rain = 0
KGU1 191948Z 27012KT 21/M02 A2998 RMK A01 T02111018  RH  022%=      5-min Rain = 0
KGU1 191949Z 27012KT 22/M02 A2998 RMK A01 T02151016  RH  021%=      5-min Rain = 0
KGU1 191950Z 27014G21KT 22/M02 A2998 RMK A01 T02161017  RH  021%=      5-min Rain = 0
KGU1 191951Z 27016G23KT 22/M02 A2997 RMK A01 T02161017  RH  021%=      5-min Rain = 0
KGU1 191952Z 28015G21KT 22/M02 A2997 RMK A01 T02171015  RH  021%=      5-min Rain = 0
KGU1 191953Z 26014G20KT 22/M02 A2997 RMK A01 T02181015  RH  021%=      5-min Rain = 0
KGU1 191954Z 27016G21KT 22/M02 A2997 RMK A01 T02171015  RH  021%=      5-min Rain = 0
KGU1 191955Z 27015G29KT 22/M01 A2997 RMK A01 T02161014  RH  022%=      5-min Rain = 0
KGU1 191956Z 27012G19KT 22/M01 A2997 RMK A01 T02181013  RH  022%=      5-min Rain = 0
KGU1 191957Z 28015KT 22/M01 A2997 RMK A01 T02181013  RH  021%=      5-min Rain = 0
KGU1 191958Z 26017G23KT 22/M01 A2997 RMK A01 T02181013  RH  022%=      5-min Rain = 0
KGU1 191959Z 26018G23KT 22/M01 A2996 RMK A01 T02161012  RH  022%=      5-min Rain = 0
KGU1 192000Z 26014G19KT 22/M01 A2996 RMK A01 T02161012  RH  022%=      5-min Rain = 0
KGU1 192001Z 26017G24KT 22/M01 A2996 RMK A01 T02161011  RH  022%=      5-min Rain = 0
KGU1 192002Z 27015G20KT 22/M01 A2996 RMK A01 T02161011  RH  022%=      5-min Rain = 0
KGU1 192003Z 27017G28KT 22/M01 A2996 RMK A01 T02181010  RH  022%=      5-min Rain = 0
KGU1 192004Z 26020G25KT 22/M01 A2996 RMK A01 T02181011  RH  022%=      5-min Rain = 0
KGU1 192005Z 26020G27KT 22/M01 A2996 RMK A01 T02161012  RH  022%=      5-min Rain = 0
KGU1 192006Z 26018G29KT 22/M01 A2996 RMK A01 T02151013  RH  022%=      5-min Rain = 0
KGU1 192007Z 27019G24KT 21/M01 A2996 RMK A01 T02141014  RH  022%=      5-min Rain = 0
KGU1 192008Z 27018G23KT 21/M01 A2996 RMK A01 T02141014  RH  022%=      5-min Rain = 0
KGU1 192009Z 28013G22KT 21/M01 A2996 RMK A01 T02141014  RH  022%=      5-min Rain = 0
KGU1 192010Z 28014G19KT 22/M01 A2996 RMK A01 T02181012  RH  022%=      5-min Rain = 0
KGU1 192011Z 27018G24KT 22/M01 A2996 RMK A01 T02191011  RH  022%=      5-min Rain = 0
KGU1 192012Z 27017KT 22/M01 A2996 RMK A01 T02191011  RH  022%=      5-min Rain = 0
KGU1 192013Z 28016G22KT 22/M01 A2996 RMK A01 T02151012  RH  022%=      5-min Rain = 0
KGU1 192014Z 28017G23KT 21/M01 A2996 RMK A01 T02141013  RH  022%=      5-min Rain = 0
KGU1 192015Z 28016KT 21/M01 A2996 RMK A01 T02141013  RH  022%=      5-min Rain = 0
KGU1 192016Z 26013G19KT 22/M01 A2996 RMK A01 T02151013  RH  022%=      5-min Rain = 0
KGU1 192017Z 28014G22KT 22/M01 A2996 RMK A01 T02181011  RH  022%=      5-min Rain = 0
KGU1 192018Z 28015G20KT 22/M01 A2996 RMK A01 T02201011  RH  021%=      5-min Rain = 0
KGU1 192019Z 28014G19KT 22/M01 A2996 RMK A01 T02191012  RH  021%=      5-min Rain = 0
KGU1 192020Z 27015G22KT 22/M01 A2996 RMK A01 T02201013  RH  021%=      5-min Rain = 0
KGU1 192021Z 26019G24KT 22/M02 A2996 RMK A01 T02201015  RH  021%=      5-min Rain = 0
KGU1 192022Z 26019KT 22/M02 A2996 RMK A01 T02151017  RH  021%=      5-min Rain = 0
KGU1 192023Z 27014KT 21/M02 A2996 RMK A01 T02141015  RH  022%=      5-min Rain = 0
KGU1 192024Z 27015G22KT 22/M01 A2996 RMK A01 T02161012  RH  022%=      5-min Rain = 0
KGU1 192025Z 26012G18KT 22/M01 A2996 RMK A01 T02171012  RH  022%=      5-min Rain = 0
KGU1 192026Z 28014KT 22/M01 A2996 RMK A01 T02191012  RH  022%=      5-min Rain = 0
KGU1 192027Z 27013KT 22/M01 A2996 RMK A01 T02191012  RH  022%=      5-min Rain = 0
KGU1 192028Z 28014G21KT 22/M01 A2996 RMK A01 T02191012  RH  021%=      5-min Rain = 0
KGU1 192029Z 27013G18KT 22/M01 A2996 RMK A01 T02191013  RH  021%=      5-min Rain = 0
KGU1 192030Z 27016G21KT 22/M01 A2996 RMK A01 T02181011  RH  022%=      5-min Rain = 0
KGU1 192031Z 26021G28KT 22/M01 A2995 RMK A01 T02161012  RH  022%=      5-min Rain = 0
KGU1 192032Z 27023G28KT 21/M01 A2995 RMK A01 T02131013  RH  022%=      5-min Rain = 0
KGU1 192033Z 27017KT 21/M02 A2996 RMK A01 T02101016  RH  022%=      5-min Rain = 0
KGU1 192034Z 27019KT 21/M02 A2995 RMK A01 T02071017  RH  022%=      5-min Rain = 0
KGU1 192035Z 26015G22KT 21/M02 A2995 RMK A01 T02051016  RH  023%=      5-min Rain = 0
KGU1 192036Z 26016G21KT 21/M02 A2995 RMK A01 T02051015  RH  023%=      5-min Rain = 0
KGU1 192037Z 26021G27KT 21/M02 A2995 RMK A01 T02061015  RH  023%=      5-min Rain = 0
KGU1 192038Z 24015G24KT 20/M02 A2995 RMK A01 T02041015  RH  023%=      5-min Rain = 0
KGU1 192039Z 25015KT 20/M02 A2995 RMK A01 T02041015  RH  023%=      5-min Rain = 0
KGU1 192040Z 26019KT 21/M02 A2995 RMK A01 T02071016  RH  022%=      5-min Rain = 0
KGU1 192041Z 26017G24KT 21/M02 A2995 RMK A01 T02101015  RH  022%=      5-min Rain = 0
KGU1 192042Z 26021G27KT 21/M01 A2995 RMK A01 T02111013  RH  022%=      5-min Rain = 0
KGU1 192043Z 27021KT 21/M01 A2995 RMK A01 T02111013  RH  022%=      5-min Rain = 0
KGU1 192044Z 26020KT 21/M01 A2995 RMK A01 T02131013  RH  022%=      5-min Rain = 0
KGU1 192045Z 28019KT 21/M02 A2995 RMK A01 T02141015  RH  022%=      5-min Rain = 0
KGU1 192046Z 29018G23KT 21/M02 A2995 RMK A01 T02111019  RH  021%=      5-min Rain = 0
KGU1 192047Z 29019G27KT 21/M02 A2995 RMK A01 T02071019  RH  022%=      5-min Rain = 0
KGU1 192048Z 28014G19KT 21/M02 A2995 RMK A01 T02051020  RH  022%=      5-min Rain = 0
KGU1 192049Z 26011G16KT 21/M02 A2995 RMK A01 T02051018  RH  022%=      5-min Rain = 0
KGU1 192050Z 28013KT 21/M02 A2995 RMK A01 T02071017  RH  022%=      5-min Rain = 0
KGU1 192051Z 28016G22KT 21/M02 A2995 RMK A01 T02081017  RH  022%=      5-min Rain = 0
KGU1 192052Z 27013KT 21/M02 A2995 RMK A01 T02071015  RH  023%=      5-min Rain = 0
KGU1 192053Z 28013G23KT 21/M01 A2995 RMK A01 T02081013  RH  023%=      5-min Rain = 0
KGU1 192054Z 27013G21KT 21/M01 A2995 RMK A01 T02101011  RH  023%=      5-min Rain = 0
KGU1 192055Z 28015KT 21/M01 A2995 RMK A01 T02111010  RH  023%=      5-min Rain = 0
KGU1 192056Z 28016G21KT 21/M01 A2995 RMK A01 T02081011  RH  023%=      5-min Rain = 0
KGU1 192057Z 28014G24KT 21/M01 A2995 RMK A01 T02081010  RH  023%=      5-min Rain = 0
KGU1 192058Z 27017G23KT 21/M01 A2995 RMK A01 T02071010  RH  023%=      5-min Rain = 0
KGU1 192059Z 28018G26KT 21/M01 A2995 RMK A01 T02061012  RH  023%=      5-min Rain = 0
KGU1 192100Z 27016G21KT 21/M01 A2994 RMK A01 T02061013  RH  023%=      5-min Rain = 0
KGU1 192101Z 27015KT 21/M01 A2994 RMK A01 T02081012  RH  023%=      5-min Rain = 0
KGU1 192102Z 28012KT 21/M01 A2994 RMK A01 T02111012  RH  023%=      5-min Rain = 0
KGU1 192103Z 28020G25KT 21/M01 A2994 RMK A01 T02141010  RH  023%=      5-min Rain = 0
KGU1 192104Z 28018G26KT 21/M01 A2995 RMK A01 T02111012  RH  023%=      5-min Rain = 0
KGU1 192105Z 27016G21KT 21/M01 A2994 RMK A01 T02101010  RH  023%=      5-min Rain = 0
KGU1 192106Z 27014G24KT 21/M01 A2995 RMK A01 T02111009  RH  023%=      5-min Rain = 0
KGU1 192107Z 26017KT 21/M01 A2994 RMK A01 T02111009  RH  023%=      5-min Rain = 0
KGU1 192108Z 26016G23KT 21/M01 A2995 RMK A01 T02091010  RH  023%=      5-min Rain = 0
KGU1 192109Z 26018KT 21/M01 A2994 RMK A01 T02071013  RH  023%=      5-min Rain = 0
KGU1 192110Z 26014G20KT 20/M02 A2994 RMK A01 T02041015  RH  023%=      5-min Rain = 0
KGU1 192111Z 25017G23KT 20/M02 A2994 RMK A01 T02031015  RH  023%=      5-min Rain = 0
KGU1 192112Z 24018G23KT 20/M02 A2994 RMK A01 T02011018  RH  023%=      5-min Rain = 0
KGU1 192113Z 25021KT 20/M02 A2994 RMK A01 T01991018  RH  023%=      5-min Rain = 0
KGU1 192114Z 25019G24KT 20/M02 A2994 RMK A01 T01991018  RH  023%=      5-min Rain = 0
KGU1 192115Z 26021G28KT 20/M02 A2994 RMK A01 T01981017  RH  024%=      5-min Rain = 0
KGU1 192116Z 26020G27KT 20/M02 A2994 RMK A01 T01981016  RH  024%=      5-min Rain = 0
KGU1 192117Z 26011G18KT 20/M01 A2995 RMK A01 T01981014  RH  024%=      5-min Rain = 0
KGU1 192118Z 26016G21KT 20/M02 A2995 RMK A01 T01981019  RH  023%=      5-min Rain = 0
KGU1 192119Z 27012KT 20/M02 A2995 RMK A01 T01981020  RH  023%=      5-min Rain = 0
KGU1 192120Z 26014G22KT 20/M02 A2995 RMK A01 T01991017  RH  023%=      5-min Rain = 0
KGU1 192121Z 27015G21KT 20/M02 A2994 RMK A01 T01991017  RH  023%=      5-min Rain = 0
KGU1 192122Z 27015G20KT 20/M02 A2994 RMK A01 T01991019  RH  023%=      5-min Rain = 0
KGU1 192123Z 26014KT 20/M02 A2994 RMK A01 T02001018  RH  023%=      5-min Rain = 0
KGU1 192124Z 26016G23KT 20/M02 A2994 RMK A01 T02011016  RH  023%=      5-min Rain = 0
KGU1 192125Z 25015G22KT 20/M01 A2994 RMK A01 T02011013  RH  024%=      5-min Rain = 0
KGU1 192126Z 28014G19KT 20/M01 A2994 RMK A01 T02031011  RH  024%=      5-min Rain = 0
KGU1 192127Z 28019KT 21/M01 A2994 RMK A01 T02051013  RH  023%=      5-min Rain = 0
KGU1 192128Z 27018KT 21/M01 A2994 RMK A01 T02051014  RH  023%=      5-min Rain = 0
KGU1 192129Z 27017G23KT 21/M02 A2994 RMK A01 T02051015  RH  023%=      5-min Rain = 0
KGU1 192130Z 26011G20KT 21/M02 A2994 RMK A01 T02051015  RH  023%=      5-min Rain = 0
KGU1 192131Z 27015G21KT 21/M02 A2994 RMK A01 T02071015  RH  023%=      5-min Rain = 0
KGU1 192132Z 28018KT 21/M01 A2995 RMK A01 T02071014  RH  023%=      5-min Rain = 0
KGU1 192133Z 27013KT 21/M01 A2995 RMK A01 T02071012  RH  023%=      5-min Rain = 0
KGU1 192134Z 27011G17KT 21/M01 A2995 RMK A01 T02101012  RH  023%=      5-min Rain = 0
KGU1 192135Z 25012G17KT 21/M01 A2995 RMK A01 T02121010  RH  023%=      5-min Rain = 0
KGU1 192136Z 25012G21KT 21/M01 A2995 RMK A01 T02131011  RH  022%=      5-min Rain = 0
KGU1 192137Z 26014G20KT 21/M02 A2995 RMK A01 T02111017  RH  022%=      5-min Rain = 0
KGU1 192138Z 27014KT 21/M02 A2995 RMK A01 T02081019  RH  022%=      5-min Rain = 0
KGU1 192139Z 26016G21KT 21/M02 A2995 RMK A01 T02051019  RH  022%=      5-min Rain = 0
KGU1 192140Z 25017G23KT 20/M02 A2995 RMK A01 T02031020  RH  022%=      5-min Rain = 0
KGU1 192141Z 25014KT 20/M02 A2995 RMK A01 T02011020  RH  023%=      5-min Rain = 0
KGU1 192142Z 26009KT 20/M02 A2995 RMK A01 T02001019  RH  023%=      5-min Rain = 0
KGU1 192143Z 24009KT 20/M02 A2995 RMK A01 T02011020  RH  023%=      5-min Rain = 0
KGU1 192144Z 25011G16KT 20/M02 A2995 RMK A01 T02001020  RH  023%=      5-min Rain = 0
KGU1 192145Z 25010G19KT 20/M02 A2995 RMK A01 T01991020  RH  023%=      5-min Rain = 0
KGU1 192146Z 26013G19KT 20/M02 A2995 RMK A01 T01991019  RH  023%=      5-min Rain = 0
KGU1 192147Z 26012KT 20/M02 A2995 RMK A01 T01991019  RH  023%=      5-min Rain = 0
KGU1 192148Z 26012G17KT 20/M02 A2995 RMK A01 T01991020  RH  023%=      5-min Rain = 0
KGU1 192149Z 28010G15KT 20/M02 A2995 RMK A01 T01981020  RH  023%=      5-min Rain = 0
KGU1 192150Z 26015G21KT 20/M02 A2995 RMK A01 T01981020  RH  023%=      5-min Rain = 0
KGU1 192151Z 25010KT 20/M02 A2995 RMK A01 T01971020  RH  023%=      5-min Rain = 0
KGU1 192152Z 25013KT 20/M02 A2995 RMK A01 T01971020  RH  023%=      5-min Rain = 0
KGU1 192153Z 25017G26KT 20/M02 A2995 RMK A01 T01961021  RH  023%=      5-min Rain = 0
KGU1 192154Z 26013KT 20/M02 A2995 RMK A01 T01961021  RH  023%=      5-min Rain = 0
KGU1 192155Z 26012KT 20/M02 A2995 RMK A01 T01961020  RH  023%=      5-min Rain = 0
KGU1 192156Z 27012G18KT 20/M02 A2995 RMK A01 T01971018  RH  024%=      5-min Rain = 0
KGU1 192157Z 27014G19KT 20/M02 A2995 RMK A01 T01971018  RH  024%=      5-min Rain = 0
KGU1 192158Z 28012KT 20/M02 A2995 RMK A01 T01981017  RH  024%=      5-min Rain = 0
KGU1 192159Z 26013KT 20/M02 A2995 RMK A01 T01981018  RH  023%=      5-min Rain = 0
KGU1 192200Z 25016G21KT 20/M02 A2995 RMK A01 T01981018  RH  023%=      5-min Rain = 0
KGU1 192201Z 25013G18KT 20/M02 A2995 RMK A01 T01971018  RH  024%=      5-min Rain = 0
KGU1 192202Z 27014KT 20/M02 A2995 RMK A01 T01971017  RH  024%=      5-min Rain = 0
KGU1 192203Z 26008KT 20/M02 A2995 RMK A01 T01981017  RH  024%=      5-min Rain = 0
KGU1 192204Z 25010KT 20/M02 A2995 RMK A01 T01991016  RH  024%=      5-min Rain = 0
KGU1 192205Z 23010KT 20/M02 A2995 RMK A01 T01981017  RH  024%=      5-min Rain = 0
KGU1 192206Z 24011G20KT 20/M02 A2995 RMK A01 T01981017  RH  024%=      5-min Rain = 0
KGU1 192207Z 26015G20KT 20/M02 A2995 RMK A01 T01971017  RH  024%=      5-min Rain = 0
KGU1 192208Z 27018G26KT 20/M02 A2995 RMK A01 T01971017  RH  024%=      5-min Rain = 0
KGU1 192209Z 24014G19KT 20/M02 A2995 RMK A01 T01971017  RH  024%=      5-min Rain = 0
KGU1 192210Z 25014KT 20/M02 A2995 RMK A01 T01971017  RH  024%=      5-min Rain = 0
KGU1 192211Z 25013KT 20/M02 A2995 RMK A01 T01961018  RH  024%=      5-min Rain = 0
KGU1 192212Z 25010KT 20/M02 A2995 RMK A01 T01961017  RH  024%=      5-min Rain = 0
KGU1 192213Z 25010KT 20/M02 A2995 RMK A01 T01961015  RH  024%=      5-min Rain = 0
KGU1 192214Z 25010KT 20/M01 A2995 RMK A01 T01971013  RH  025%=      5-min Rain = 0
KGU1 192215Z 23009G14KT 20/M01 A2995 RMK A01 T01971012  RH  025%=      5-min Rain = 0
KGU1 192216Z 25012KT 20/M01 A2995 RMK A01 T01971013  RH  024%=      5-min Rain = 0
KGU1 192217Z 26012KT 20/M01 A2995 RMK A01 T01971013  RH  024%=      5-min Rain = 0
KGU1 192218Z 26013KT 20/M01 A2995 RMK A01 T01961014  RH  024%=      5-min Rain = 0
KGU1 192219Z 27013G19KT 20/M01 A2995 RMK A01 T01961012  RH  025%=      5-min Rain = 0
KGU1 192220Z 25013G21KT 20/M01 A2995 RMK A01 T01961013  RH  025%=      5-min Rain = 0
KGU1 192221Z 26010KT 20/M01 A2995 RMK A01 T01961012  RH  025%=      5-min Rain = 0
KGU1 192222Z 23012G19KT 20/M01 A2995 RMK A01 T01961013  RH  025%=      5-min Rain = 0
KGU1 192223Z 24016KT 20/M01 A2995 RMK A01 T01951014  RH  025%=      5-min Rain = 0
KGU1 192224Z 25011KT 19/M02 A2995 RMK A01 T01941015  RH  025%=      5-min Rain = 0
KGU1 192225Z 24014KT 19/M01 A2995 RMK A01 T01941014  RH  025%=      5-min Rain = 0
KGU1 192226Z 25012KT 19/M02 A2995 RMK A01 T01941015  RH  025%=      5-min Rain = 0
KGU1 192227Z 26010KT 19/M02 A2995 RMK A01 T01941016  RH  024%=      5-min Rain = 0
KGU1 192228Z 24007KT 19/M01 A2995 RMK A01 T01931014  RH  025%=      5-min Rain = 0
KGU1 192229Z 26008KT 19/M01 A2995 RMK A01 T01941012  RH  025%=      5-min Rain = 0
KGU1 192230Z 25009G16KT 19/M01 A2995 RMK A01 T01941012  RH  025%=      5-min Rain = 0
KGU1 192231Z 24009KT 19/M01 A2995 RMK A01 T01941012  RH  025%=      5-min Rain = 0
KGU1 192232Z 23010G16KT 19/M01 A2995 RMK A01 T01941011  RH  025%=      5-min Rain = 0
KGU1 192233Z 23011KT 19/M01 A2995 RMK A01 T01941010  RH  025%=      5-min Rain = 0
KGU1 192234Z 24013G19KT 19/M01 A2995 RMK A01 T01941010  RH  025%=      5-min Rain = 0
KGU1 192235Z 23011KT 19/M01 A2995 RMK A01 T01941010  RH  025%=      5-min Rain = 0
KGU1 192236Z 25011G18KT 19/M01 A2995 RMK A01 T01931011  RH  025%=      5-min Rain = 0
KGU1 192237Z 26012KT 19/M01 A2995 RMK A01 T01931011  RH  025%=      5-min Rain = 0
KGU1 192238Z 24010KT 19/M01 A2995 RMK A01 T01931011  RH  025%=      5-min Rain = 0
KGU1 192239Z 23009KT 19/M01 A2995 RMK A01 T01931011  RH  025%=      5-min Rain = 0
KGU1 192240Z 24011G17KT 19/M01 A2995 RMK A01 T01931010  RH  026%=      5-min Rain = 0
KGU1 192241Z 24010KT 19/M01 A2995 RMK A01 T01931011  RH  025%=      5-min Rain = 0
KGU1 192242Z 23011G18KT 19/M01 A2995 RMK A01 T01931010  RH  025%=      5-min Rain = 0
KGU1 192243Z 24017G24KT 19/M01 A2995 RMK A01 T01931010  RH  025%=      5-min Rain = 0
KGU1 192244Z 23011G16KT 19/M01 A2996 RMK A01 T01931010  RH  026%=      5-min Rain = 0
KGU1 192245Z 24012G17KT 19/M01 A2996 RMK A01 T01931010  RH  026%=      5-min Rain = 0
KGU1 192246Z 26012G17KT 19/M01 A2996 RMK A01 T01931010  RH  026%=      5-min Rain = 0
KGU1 192247Z 24011G16KT 19/M01 A2996 RMK A01 T01931009  RH  026%=      5-min Rain = 0
KGU1 192248Z 23012G18KT 19/M01 A2996 RMK A01 T01931007  RH  026%=      5-min Rain = 0
KGU1 192249Z 24019KT 19/M01 A2996 RMK A01 T01931008  RH  026%=      5-min Rain = 0
KGU1 192250Z 25019G25KT 19/M01 A2996 RMK A01 T01931009  RH  026%=      5-min Rain = 0
KGU1 192251Z 24014KT 19/M01 A2996 RMK A01 T01931009  RH  026%=      5-min Rain = 0
KGU1 192252Z 24013KT 19/M01 A2996 RMK A01 T01931009  RH  026%=      5-min Rain = 0
KGU1 192253Z 24017G23KT 19/M01 A2996 RMK A01 T01931007  RH  026%=      5-min Rain = 0
KGU1 192254Z 23012G20KT 19/M01 A2996 RMK A01 T01931007  RH  026%=      5-min Rain = 0
KGU1 192255Z 23014G23KT 19/M01 A2996 RMK A01 T01921009  RH  026%=      5-min Rain = 0
KGU1 192256Z 23015G20KT 19/M01 A2996 RMK A01 T01921008  RH  026%=      5-min Rain = 0
KGU1 192257Z 25017KT 19/M01 A2996 RMK A01 T01921008  RH  026%=      5-min Rain = 0
KGU1 192258Z 24011KT 19/M01 A2996 RMK A01 T01921007  RH  026%=      5-min Rain = 0
KGU1 192259Z 24011G19KT 19/M01 A2996 RMK A01 T01921007  RH  026%=      5-min Rain = 0
KGU1 192300Z 24015KT 19/M01 A2996 RMK A01 T01911007  RH  027%=      5-min Rain = 0
KGU1 192301Z 25016KT 19/M01 A2996 RMK A01 T01911007  RH  027%=      5-min Rain = 0
KGU1 192302Z 26012G20KT 19/M01 A2996 RMK A01 T01911007  RH  026%=      5-min Rain = 0
KGU1 192303Z 24012KT 19/M01 A2996 RMK A01 T01911006  RH  027%=      5-min Rain = 0
KGU1 192304Z 24014KT 19/M01 A2996 RMK A01 T01911005  RH  027%=      5-min Rain = 0
KGU1 192305Z 25011KT 19/M01 A2996 RMK A01 T01911005  RH  027%=      5-min Rain = 0
KGU1 192306Z 24008G22KT 19/M00 A2996 RMK A01 T01911004  RH  027%=      5-min Rain = 0
KGU1 192307Z 23018G23KT 19/M01 A2995 RMK A01 T01911005  RH  027%=      5-min Rain = 0
KGU1 192308Z 25014G21KT 19/M01 A2995 RMK A01 T01911005  RH  027%=      5-min Rain = 0
KGU1 192309Z 24010G17KT 19/M01 A2995 RMK A01 T01911005  RH  027%=      5-min Rain = 0
KGU1 192310Z 24013KT 19/M00 A2995 RMK A01 T01911003  RH  027%=      5-min Rain = 0
KGU1 192311Z 25011G19KT 19/M00 A2995 RMK A01 T01901004  RH  027%=      5-min Rain = 0
KGU1 192312Z 23013G18KT 19/M00 A2995 RMK A01 T01901001  RH  028%=      5-min Rain = 0
KGU1 192313Z 23013G25KT 19/M00 A2995 RMK A01 T01901001  RH  028%=      5-min Rain = 0
KGU1 192314Z 24014G21KT 19/M00 A2995 RMK A01 T01911001  RH  028%=      5-min Rain = 0
KGU1 192315Z 24016G27KT 19/M00 A2995 RMK A01 T01911001  RH  028%=      5-min Rain = 0
KGU1 192316Z 24018G25KT 19/M00 A2995 RMK A01 T01911001  RH  028%=      5-min Rain = 0
KGU1 192317Z 24015KT 19/M00 A2995 RMK A01 T01911001  RH  028%=      5-min Rain = 0
KGU1 192318Z 25011KT 19/00 A2995 RMK A01 T01910000  RH  028%=      5-min Rain = 0
KGU1 192319Z 23013KT 19/00 A2995 RMK A01 T01910001  RH  028%=      5-min Rain = 0
KGU1 192320Z 23014G21KT 19/00 A2995 RMK A01 T01910003  RH  029%=      5-min Rain = 0
KGU1 192321Z 24014KT 19/00 A2994 RMK A01 T01910004  RH  029%=      5-min Rain = 0
KGU1 192322Z 25015KT 19/01 A2994 RMK A01 T01910008  RH  030%=      5-min Rain = 0
KGU1 192323Z 25015G21KT 19/01 A2994 RMK A01 T01910005  RH  029%=      5-min Rain = 0
KGU1 192324Z 25013G18KT 19/01 A2994 RMK A01 T01910009  RH  030%=      5-min Rain = 0
KGU1 192325Z 25013KT 19/01 A2994 RMK A01 T01910009  RH  030%=      5-min Rain = 0
KGU1 192326Z 26011KT 19/01 A2994 RMK A01 T01910005  RH  029%=      5-min Rain = 0
KGU1 192327Z 26012KT 19/01 A2995 RMK A01 T01900005  RH  029%=      5-min Rain = 0
KGU1 192328Z 27013G22KT 19/01 A2995 RMK A01 T01900005  RH  029%=      5-min Rain = 0
KGU1 192329Z 26016G21KT 19/01 A2994 RMK A01 T01900005  RH  029%=      5-min Rain = 0
KGU1 192330Z 27014G19KT 19/01 A2994 RMK A01 T01900006  RH  029%=      5-min Rain = 0
KGU1 192331Z 24011G17KT 19/01 A2995 RMK A01 T01890005  RH  029%=      5-min Rain = 0
KGU1 192332Z 24009KT 19/01 A2995 RMK A01 T01890005  RH  029%=      5-min Rain = 0
KGU1 192333Z 26011KT 19/01 A2995 RMK A01 T01890005  RH  029%=      5-min Rain = 0
KGU1 192334Z 26016G21KT 19/01 A2995 RMK A01 T01890007  RH  030%=      5-min Rain = 0
KGU1 192335Z 26017G22KT 19/01 A2995 RMK A01 T01890006  RH  030%=      5-min Rain = 0
KGU1 192336Z 28015KT 19/01 A2995 RMK A01 T01900007  RH  030%=      5-min Rain = 0
KGU1 192337Z 26015KT 19/01 A2995 RMK A01 T01900006  RH  029%=      5-min Rain = 0
KGU1 192338Z 28018KT 19/01 A2995 RMK A01 T01890007  RH  030%=      5-min Rain = 0
KGU1 192339Z 27017KT 19/01 A2995 RMK A01 T01890007  RH  030%=      5-min Rain = 0
KGU1 192340Z 26012KT 19/01 A2995 RMK A01 T01890005  RH  029%=      5-min Rain = 0
KGU1 192341Z 26011KT 19/01 A2995 RMK A01 T01890005  RH  029%=      5-min Rain = 0
KGU1 192342Z 25012KT 19/01 A2995 RMK A01 T01880005  RH  030%=      5-min Rain = 0
KGU1 192343Z 26012G18KT 19/01 A2995 RMK A01 T01880006  RH  030%=      5-min Rain = 0
KGU1 192344Z 25015KT 19/01 A2995 RMK A01 T01890006  RH  030%=      5-min Rain = 0
KGU1 192345Z 26014G19KT 19/01 A2995 RMK A01 T01890006  RH  030%=      5-min Rain = 0
KGU1 192346Z 27017KT 19/01 A2995 RMK A01 T01880005  RH  030%=      5-min Rain = 0
KGU1 192347Z 25010KT 19/01 A2995 RMK A01 T01880006  RH  030%=      5-min Rain = 0
KGU1 192348Z 25010KT 19/01 A2995 RMK A01 T01880005  RH  030%=      5-min Rain = 0
KGU1 192349Z 23009KT 19/01 A2994 RMK A01 T01880005  RH  030%=      5-min Rain = 0
KGU1 192350Z 25012KT 19/01 A2995 RMK A01 T01880006  RH  030%=      5-min Rain = 0
KGU1 192351Z 26011G17KT 19/01 A2995 RMK A01 T01880006  RH  030%=      5-min Rain = 0
KGU1 192352Z 24017KT 19/01 A2995 RMK A01 T01880005  RH  030%=      5-min Rain = 0
KGU1 192353Z 24015KT 19/01 A2994 RMK A01 T01880005  RH  029%=      5-min Rain = 0
KGU1 192354Z 25013KT 19/00 A2995 RMK A01 T01880004  RH  029%=      5-min Rain = 0
KGU1 192355Z 25013G18KT 19/01 A2995 RMK A01 T01880005  RH  030%=      5-min Rain = 0
KGU1 192356Z 26015KT 19/01 A2995 RMK A01 T01870005  RH  030%=      5-min Rain = 0
KGU1 192357Z 26013KT 19/01 A2995 RMK A01 T01870006  RH  030%=      5-min Rain = 0
KGU1 192358Z 26008KT 19/01 A2995 RMK A01 T01870006  RH  030%=      5-min Rain = 0
KGU1 192359Z 25011KT 19/01 A2995 RMK A01 T01860005  RH  030%=      5-min Rain = 0
KGU1 200000Z 27015G20KT 19/01 A2995 RMK A01 T01860005  RH  030%=      5-min Rain = 0
KGU1 200001Z 28016KT 19/01 A2995 RMK A01 T01860005  RH  030%=      5-min Rain = 0
KGU1 200002Z 26014KT 19/01 A2995 RMK A01 T01860006  RH  030%=      5-min Rain = 0
KGU1 200003Z 26010KT 19/01 A2995 RMK A01 T01870006  RH  030%=      5-min Rain = 0
KGU1 200004Z 25012G18KT 19/01 A2995 RMK A01 T01860005  RH  030%=      5-min Rain = 0
KGU1 200005Z 25012G19KT 19/01 A2995 RMK A01 T01870005  RH  030%=      5-min Rain = 0
KGU1 200006Z 24013G18KT 19/00 A2994 RMK A01 T01870004  RH  030%=      5-min Rain = 0
KGU1 200007Z 25011KT 19/01 A2994 RMK A01 T01880005  RH  029%=      5-min Rain = 0
KGU1 200008Z 25011KT 19/00 A2995 RMK A01 T01880004  RH  029%=      5-min Rain = 0
KGU1 200009Z 24013KT 19/00 A2994 RMK A01 T01870004  RH  030%=      5-min Rain = 0
KGU1 200010Z 26015KT 19/00 A2994 RMK A01 T01870004  RH  030%=      5-min Rain = 0
KGU1 200011Z 26016KT 19/00 A2994 RMK A01 T01860003  RH  030%=      5-min Rain = 0
KGU1 200012Z 26013G18KT 19/00 A2994 RMK A01 T01850004  RH  030%=      5-min Rain = 0
KGU1 200013Z 26018G23KT 19/00 A2994 RMK A01 T01850004  RH  030%=      5-min Rain = 0
KGU1 200014Z 26016G23KT 19/00 A2994 RMK A01 T01850003  RH  030%=      5-min Rain = 0
KGU1 200015Z 26013G18KT 19/00 A2994 RMK A01 T01850002  RH  029%=      5-min Rain = 0
KGU1 200016Z 26019G24KT 19/00 A2994 RMK A01 T01850002  RH  029%=      5-min Rain = 0
KGU1 200017Z 26017KT 19/00 A2994 RMK A01 T01860002  RH  029%=      5-min Rain = 0
KGU1 200018Z 26014KT 19/00 A2994 RMK A01 T01860002  RH  029%=      5-min Rain = 0
KGU1 200019Z 27012G17KT 19/00 A2994 RMK A01 T01850002  RH  029%=      5-min Rain = 0
KGU1 200020Z 25015KT 19/00 A2994 RMK A01 T01850002  RH  030%=      5-min Rain = 0
KGU1 200021Z 25013KT 19/00 A2994 RMK A01 T01850002  RH  030%=      5-min Rain = 0
KGU1 200022Z 26014G19KT 19/00 A2994 RMK A01 T01850002  RH  030%=      5-min Rain = 0
KGU1 200023Z 25013G18KT 18/00 A2994 RMK A01 T01840002  RH  030%=      5-min Rain = 0
KGU1 200024Z 24016KT 18/00 A2994 RMK A01 T01840002  RH  030%=      5-min Rain = 0
KGU1 200025Z 24013G18KT 19/00 A2994 RMK A01 T01850002  RH  029%=      5-min Rain = 0
KGU1 200026Z 27013G19KT 19/00 A2994 RMK A01 T01850002  RH  029%=      5-min Rain = 0
KGU1 200027Z 27016G21KT 18/00 A2994 RMK A01 T01840001  RH  029%=      5-min Rain = 0
KGU1 200028Z 26011G16KT 18/00 A2994 RMK A01 T01830001  RH  030%=      5-min Rain = 0
KGU1 200029Z 27011KT 18/00 A2994 RMK A01 T01830001  RH  030%=      5-min Rain = 0
KGU1 200030Z 26011KT 18/00 A2994 RMK A01 T01820002  RH  030%=      5-min Rain = 0
KGU1 200031Z 26012G18KT 18/00 A2994 RMK A01 T01820002  RH  030%=      5-min Rain = 0
KGU1 200032Z 26012KT 18/00 A2994 RMK A01 T01830001  RH  030%=      5-min Rain = 0
KGU1 200033Z 28017G23KT 18/00 A2994 RMK A01 T01830002  RH  030%=      5-min Rain = 0
KGU1 200034Z 27013KT 18/00 A2994 RMK A01 T01830002  RH  030%=      5-min Rain = 0
KGU1 200035Z 26013KT 18/00 A2994 RMK A01 T01830002  RH  030%=      5-min Rain = 0
KGU1 200036Z 26013G18KT 18/00 A2994 RMK A01 T01830002  RH  030%=      5-min Rain = 0
KGU1 200037Z 27015KT 18/00 A2995 RMK A01 T01840003  RH  030%=      5-min Rain = 0
KGU1 200038Z 26013KT 18/00 A2995 RMK A01 T01840003  RH  030%=      5-min Rain = 0
KGU1 200039Z 24015G21KT 18/00 A2994 RMK A01 T01840004  RH  030%=      5-min Rain = 0
KGU1 200040Z 26012G18KT 19/00 A2995 RMK A01 T01850004  RH  030%=      5-min Rain = 0
KGU1 200041Z 26010KT 19/00 A2995 RMK A01 T01850004  RH  030%=      5-min Rain = 0
KGU1 200042Z 25013KT 18/00 A2995 RMK A01 T01840004  RH  030%=      5-min Rain = 0
KGU1 200043Z 27010KT 18/01 A2995 RMK A01 T01840005  RH  030%=      5-min Rain = 0
KGU1 200044Z 26009KT 18/01 A2995 RMK A01 T01840005  RH  030%=      5-min Rain = 0
KGU1 200045Z 25011KT 18/00 A2995 RMK A01 T01830004  RH  030%=      5-min Rain = 0
KGU1 200046Z 25012KT 18/00 A2995 RMK A01 T01830004  RH  030%=      5-min Rain = 0
KGU1 200047Z 26012KT 18/00 A2995 RMK A01 T01830004  RH  030%=      5-min Rain = 0
KGU1 200048Z 26013KT 18/01 A2995 RMK A01 T01820005  RH  031%=      5-min Rain = 0
KGU1 200049Z 26012G17KT 18/01 A2995 RMK A01 T01810006  RH  031%=      5-min Rain = 0
KGU1 200050Z 25010KT 18/01 A2995 RMK A01 T01810007  RH  031%=      5-min Rain = 0
KGU1 200051Z 26015KT 18/01 A2995 RMK A01 T01810009  RH  032%=      5-min Rain = 0
KGU1 200052Z 26011KT 18/01 A2995 RMK A01 T01810011  RH  032%=      5-min Rain = 0
KGU1 200053Z 26012G17KT 18/01 A2995 RMK A01 T01810010  RH  032%=      5-min Rain = 0
KGU1 200054Z 28013KT 18/01 A2995 RMK A01 T01810013  RH  033%=      5-min Rain = 0
KGU1 200055Z 27015KT 18/02 A2995 RMK A01 T01810016  RH  033%=      5-min Rain = 0
KGU1 200056Z 27013KT 18/02 A2995 RMK A01 T01810019  RH  034%=      5-min Rain = 0
KGU1 200057Z 25011KT 18/02 A2995 RMK A01 T01820019  RH  034%=      5-min Rain = 0
KGU1 200058Z 26009KT 18/02 A2995 RMK A01 T01820018  RH  034%=      5-min Rain = 0
KGU1 200059Z 25012KT 18/02 A2995 RMK A01 T01820018  RH  034%=      5-min Rain = 0
KGU1 200100Z 24011G17KT 18/02 A2995 RMK A01 T01820017  RH  034%=      5-min Rain = 0
KGU1 200101Z 25014G20KT 18/02 A2995 RMK A01 T01830017  RH  033%=      5-min Rain = 0
KGU1 200102Z 26014G19KT 18/02 A2995 RMK A01 T01830018  RH  034%=      5-min Rain = 0
KGU1 200103Z 27018G23KT 18/02 A2995 RMK A01 T01830020  RH  034%=      5-min Rain = 0
KGU1 200104Z 26009G14KT 18/02 A2995 RMK A01 T01840020  RH  034%=      5-min Rain = 0
KGU1 200105Z 25011KT 18/02 A2995 RMK A01 T01830019  RH  034%=      5-min Rain = 0
KGU1 200106Z 25013KT 18/02 A2995 RMK A01 T01830019  RH  034%=      5-min Rain = 0
KGU1 200107Z 26010KT 18/02 A2995 RMK A01 T01830019  RH  034%=      5-min Rain = 0
KGU1 200108Z 27010KT 18/02 A2996 RMK A01 T01830018  RH  034%=      5-min Rain = 0
KGU1 200109Z 26011KT 18/02 A2996 RMK A01 T01820018  RH  034%=      5-min Rain = 0
KGU1 200110Z 24012G19KT 18/02 A2996 RMK A01 T01820019  RH  034%=      5-min Rain = 0
KGU1 200111Z 26015KT 18/02 A2996 RMK A01 T01820018  RH  034%=      5-min Rain = 0
KGU1 200112Z 26010KT 18/02 A2996 RMK A01 T01820018  RH  034%=      5-min Rain = 0
KGU1 200113Z 24013KT 18/02 A2996 RMK A01 T01820019  RH  034%=      5-min Rain = 0
KGU1 200114Z 25012G20KT 18/02 A2996 RMK A01 T01830021  RH  034%=      5-min Rain = 0
KGU1 200115Z 25014KT 18/02 A2996 RMK A01 T01830020  RH  034%=      5-min Rain = 0
KGU1 200116Z 25012KT 18/02 A2996 RMK A01 T01830020  RH  034%=      5-min Rain = 0
KGU1 200117Z 25014G20KT 18/02 A2996 RMK A01 T01830020  RH  034%=      5-min Rain = 0
KGU1 200118Z 24015G25KT 18/02 A2996 RMK A01 T01830021  RH  034%=      5-min Rain = 0
KGU1 200119Z 24015G23KT 18/02 A2996 RMK A01 T01830022  RH  035%=      5-min Rain = 0
KGU1 200120Z 27011KT 18/02 A2996 RMK A01 T01830022  RH  035%=      5-min Rain = 0
KGU1 200121Z 26010KT 18/02 A2996 RMK A01 T01820022  RH  035%=      5-min Rain = 0
KGU1 200122Z 26013G18KT 18/02 A2996 RMK A01 T01810022  RH  035%=      5-min Rain = 0
KGU1 200123Z 25012KT 18/02 A2996 RMK A01 T01810022  RH  035%=      5-min Rain = 0
KGU1 200124Z 25013KT 18/02 A2996 RMK A01 T01810023  RH  035%=      5-min Rain = 0
KGU1 200125Z 26013G20KT 18/02 A2996 RMK A01 T01830023  RH  035%=      5-min Rain = 0
KGU1 200126Z 25019KT 18/02 A2996 RMK A01 T01830023  RH  035%=      5-min Rain = 0
KGU1 200127Z 25015KT 18/02 A2996 RMK A01 T01840024  RH  035%=      5-min Rain = 0
KGU1 200128Z 25016KT 18/02 A2996 RMK A01 T01840024  RH  035%=      5-min Rain = 0
KGU1 200129Z 25014G20KT 18/02 A2996 RMK A01 T01840024  RH  035%=      5-min Rain = 0
KGU1 200130Z 24018KT 18/03 A2996 RMK A01 T01840025  RH  035%=      5-min Rain = 0
KGU1 200131Z 24018G23KT 19/03 A2996 RMK A01 T01850025  RH  035%=      5-min Rain = 0
KGU1 200132Z 22018G24KT 19/03 A2996 RMK A01 T01850026  RH  035%=      5-min Rain = 0
KGU1 200133Z 24017G22KT 19/03 A2996 RMK A01 T01850025  RH  035%=      5-min Rain = 0
KGU1 200134Z 23017KT 19/03 A2996 RMK A01 T01850026  RH  035%=      5-min Rain = 0
KGU1 200135Z 25014G20KT 18/03 A2996 RMK A01 T01840026  RH  035%=      5-min Rain = 0
KGU1 200136Z 24012G18KT 18/03 A2996 RMK A01 T01840026  RH  035%=      5-min Rain = 0
KGU1 200137Z 23015KT 18/03 A2996 RMK A01 T01830026  RH  035%=      5-min Rain = 0
KGU1 200138Z 24014G19KT 18/03 A2996 RMK A01 T01830026  RH  035%=      5-min Rain = 0
KGU1 200139Z 24013KT 18/03 A2996 RMK A01 T01830025  RH  035%=      5-min Rain = 0
KGU1 200140Z 24015KT 18/03 A2996 RMK A01 T01830026  RH  036%=      5-min Rain = 0
KGU1 200141Z 24017G25KT 18/03 A2996 RMK A01 T01840027  RH  036%=      5-min Rain = 0
KGU1 200142Z 25015KT 18/03 A2996 RMK A01 T01840026  RH  035%=      5-min Rain = 0
KGU1 200143Z 24015KT 18/03 A2996 RMK A01 T01840026  RH  035%=      5-min Rain = 0
KGU1 200144Z 25015KT 18/03 A2996 RMK A01 T01840026  RH  035%=      5-min Rain = 0
KGU1 200145Z 25017KT 18/03 A2996 RMK A01 T01840026  RH  036%=      5-min Rain = 0
KGU1 200146Z 24018G24KT 18/03 A2996 RMK A01 T01840028  RH  036%=      5-min Rain = 0
KGU1 200147Z 24014G19KT 19/03 A2996 RMK A01 T01850028  RH  036%=      5-min Rain = 0
KGU1 200148Z 25017KT 19/03 A2996 RMK A01 T01850028  RH  036%=      5-min Rain = 0
KGU1 200149Z 25019KT 19/03 A2996 RMK A01 T01850029  RH  036%=      5-min Rain = 0
KGU1 200150Z 24015G20KT 19/03 A2996 RMK A01 T01850030  RH  036%=      5-min Rain = 0
KGU1 200151Z 25014G20KT 19/03 A2996 RMK A01 T01850030  RH  036%=      5-min Rain = 0
KGU1 200152Z 25018KT 18/03 A2996 RMK A01 T01840030  RH  036%=      5-min Rain = 0
KGU1 200153Z 23014KT 18/03 A2996 RMK A01 T01840031  RH  037%=      5-min Rain = 0
KGU1 200154Z 25012KT 18/03 A2996 RMK A01 T01840031  RH  037%=      5-min Rain = 0
KGU1 200155Z 24017G27KT 18/03 A2996 RMK A01 T01840031  RH  037%=      5-min Rain = 0
KGU1 200156Z 24014G24KT 19/03 A2996 RMK A01 T01850032  RH  037%=      5-min Rain = 0
KGU1 200157Z 25015G23KT 19/03 A2996 RMK A01 T01850032  RH  037%=      5-min Rain = 0
KGU1 200158Z 23016G22KT 19/03 A2996 RMK A01 T01850033  RH  037%=      5-min Rain = 0
KGU1 200159Z 24017KT 19/03 A2996 RMK A01 T01850034  RH  037%=      5-min Rain = 0
KGU1 200200Z 25014G19KT 19/03 A2996 RMK A01 T01850034  RH  037%=      5-min Rain = 0
KGU1 200201Z 23014G19KT 19/03 A2996 RMK A01 T01850034  RH  037%=      5-min Rain = 0
KGU1 200202Z 23012G20KT 19/04 A2996 RMK A01 T01850035  RH  038%=      5-min Rain = 0
KGU1 200203Z 24020G27KT 19/03 A2996 RMK A01 T01850034  RH  037%=      5-min Rain = 0
KGU1 200204Z 24020G25KT 18/03 A2996 RMK A01 T01840033  RH  037%=      5-min Rain = 0
KGU1 200205Z 24019KT 19/03 A2996 RMK A01 T01850034  RH  037%=      5-min Rain = 0
KGU1 200206Z 27015G21KT 18/03 A2996 RMK A01 T01840034  RH  038%=      5-min Rain = 0
KGU1 200207Z 25015G20KT 18/04 A2996 RMK A01 T01840036  RH  038%=      5-min Rain = 0
KGU1 200208Z 24020G29KT 19/04 A2996 RMK A01 T01850035  RH  038%=      5-min Rain = 0
KGU1 200209Z 25016G21KT 19/03 A2996 RMK A01 T01850034  RH  037%=      5-min Rain = 0
KGU1 200210Z 25023G29KT 19/03 A2996 RMK A01 T01850034  RH  037%=      5-min Rain = 0
KGU1 200211Z 25016G22KT 19/03 A2997 RMK A01 T01850034  RH  037%=      5-min Rain = 0
KGU1 200212Z 24016G23KT 19/04 A2996 RMK A01 T01850035  RH  037%=      5-min Rain = 0
KGU1 200213Z 25022G27KT 19/03 A2996 RMK A01 T01850033  RH  037%=      5-min Rain = 0
KGU1 200214Z 24018G27KT 19/03 A2997 RMK A01 T01850033  RH  037%=      5-min Rain = 0
KGU1 200215Z 26019G24KT 19/03 A2997 RMK A01 T01850034  RH  037%=      5-min Rain = 0
KGU1 200216Z 26017G23KT 19/03 A2997 RMK A01 T01850032  RH  037%=      5-min Rain = 0
KGU1 200217Z 24017KT 18/03 A2997 RMK A01 T01840032  RH  037%=      5-min Rain = 0
KGU1 200218Z 24018G23KT 18/03 A2996 RMK A01 T01840033  RH  037%=      5-min Rain = 0
KGU1 200219Z 24014G19KT 18/03 A2996 RMK A01 T01840033  RH  037%=      5-min Rain = 0
KGU1 200220Z 24016G22KT 18/03 A2997 RMK A01 T01840031  RH  037%=      5-min Rain = 0
KGU1 200221Z 26015KT 18/03 A2997 RMK A01 T01840032  RH  037%=      5-min Rain = 0
KGU1 200222Z 26014KT 18/03 A2997 RMK A01 T01830032  RH  037%=      5-min Rain = 0
KGU1 200223Z 26018KT 18/03 A2997 RMK A01 T01820032  RH  037%=      5-min Rain = 0
KGU1 200224Z 25017G22KT 18/03 A2997 RMK A01 T01820034  RH  038%=      5-min Rain = 0
KGU1 200225Z 26013G18KT 18/03 A2997 RMK A01 T01830034  RH  038%=      5-min Rain = 0
KGU1 200226Z 26013KT 18/03 A2997 RMK A01 T01820033  RH  038%=      5-min Rain = 0
KGU1 200227Z 26015KT 18/03 A2996 RMK A01 T01810034  RH  038%=      5-min Rain = 0
KGU1 200228Z 26014KT 18/03 A2996 RMK A01 T01810034  RH  038%=      5-min Rain = 0
KGU1 200229Z 26016KT 18/03 A2996 RMK A01 T01810034  RH  038%=      5-min Rain = 0
KGU1 200230Z 25018G23KT 18/03 A2996 RMK A01 T01810034  RH  038%=      5-min Rain = 0
KGU1 200231Z 25013G19KT 18/03 A2996 RMK A01 T01820034  RH  038%=      5-min Rain = 0
KGU1 200232Z 26014G23KT 18/04 A2996 RMK A01 T01810036  RH  039%=      5-min Rain = 0
KGU1 200233Z 27019G24KT 18/04 A2996 RMK A01 T01810036  RH  039%=      5-min Rain = 0
KGU1 200234Z 26016G21KT 18/04 A2996 RMK A01 T01810036  RH  039%=      5-min Rain = 0
KGU1 200235Z 26018KT 18/04 A2996 RMK A01 T01810036  RH  039%=      5-min Rain = 0
KGU1 200236Z 26014KT 18/04 A2996 RMK A01 T01810037  RH  039%=      5-min Rain = 0
KGU1 200237Z 26012KT 18/04 A2996 RMK A01 T01810036  RH  039%=      5-min Rain = 0
KGU1 200238Z 26013G19KT 18/04 A2996 RMK A01 T01810036  RH  039%=      5-min Rain = 0
KGU1 200239Z 25019KT 18/04 A2996 RMK A01 T01810037  RH  039%=      5-min Rain = 0
KGU1 200240Z 25016KT 18/04 A2996 RMK A01 T01830040  RH  039%=      5-min Rain = 0
KGU1 200241Z 24020KT 18/04 A2996 RMK A01 T01830039  RH  039%=      5-min Rain = 0
KGU1 200242Z 23017G26KT 18/04 A2996 RMK A01 T01840040  RH  039%=      5-min Rain = 0
KGU1 200243Z 23018G25KT 18/04 A2996 RMK A01 T01840040  RH  039%=      5-min Rain = 0
KGU1 200244Z 24018KT 19/04 A2996 RMK A01 T01850040  RH  039%=      5-min Rain = 0
KGU1 200245Z 24015KT 19/04 A2996 RMK A01 T01850039  RH  039%=      5-min Rain = 0
KGU1 200246Z 25014KT 19/04 A2996 RMK A01 T01850040  RH  039%=      5-min Rain = 0
KGU1 200247Z 25014G22KT 19/04 A2996 RMK A01 T01850039  RH  039%=      5-min Rain = 0
KGU1 200248Z 24020G25KT 18/04 A2996 RMK A01 T01840037  RH  038%=      5-min Rain = 0
KGU1 200249Z 25025G33KT 19/04 A2996 RMK A01 T01850035  RH  038%=      5-min Rain = 0
KGU1 200250Z 26018G23KT 19/04 A2996 RMK A01 T01860035  RH  037%=      5-min Rain = 0
KGU1 200251Z 25019G28KT 19/03 A2996 RMK A01 T01860033  RH  037%=      5-min Rain = 0
KGU1 200252Z 25020KT 19/03 A2996 RMK A01 T01860031  RH  036%=      5-min Rain = 0
KGU1 200253Z 25015KT 19/03 A2996 RMK A01 T01870030  RH  036%=      5-min Rain = 0
KGU1 200254Z 25018G24KT 19/03 A2996 RMK A01 T01860029  RH  036%=      5-min Rain = 0
KGU1 200255Z 26020G25KT 19/03 A2996 RMK A01 T01870028  RH  035%=      5-min Rain = 0
KGU1 200256Z 26019KT 19/03 A2996 RMK A01 T01870027  RH  035%=      5-min Rain = 0
KGU1 200257Z 24016G23KT 19/03 A2996 RMK A01 T01870030  RH  036%=      5-min Rain = 0
KGU1 200258Z 25017KT 19/03 A2996 RMK A01 T01870029  RH  036%=      5-min Rain = 0
KGU1 200259Z 26015KT 19/03 A2996 RMK A01 T01870028  RH  035%=      5-min Rain = 0
KGU1 200300Z 25014G21KT 19/03 A2997 RMK A01 T01860027  RH  035%=      5-min Rain = 0
KGU1 200301Z 25017KT 19/03 A2997 RMK A01 T01850026  RH  035%=      5-min Rain = 0
KGU1 200302Z 25016KT 19/03 A2997 RMK A01 T01860027  RH  035%=      5-min Rain = 0
KGU1 200303Z 25018G24KT 19/03 A2997 RMK A01 T01860029  RH  036%=      5-min Rain = 0
KGU1 200304Z 27020G26KT 19/03 A2997 RMK A01 T01850031  RH  036%=      5-min Rain = 0
KGU1 200305Z 26017KT 19/03 A2997 RMK A01 T01850030  RH  036%=      5-min Rain = 0
KGU1 200306Z 26013KT 19/03 A2997 RMK A01 T01850030  RH  036%=      5-min Rain = 0
KGU1 200307Z 25017KT 19/03 A2997 RMK A01 T01850031  RH  036%=      5-min Rain = 0
KGU1 200308Z 25016KT 19/03 A2997 RMK A01 T01850030  RH  036%=      5-min Rain = 0
KGU1 200309Z 26018KT 19/03 A2997 RMK A01 T01850031  RH  036%=      5-min Rain = 0
KGU1 200310Z 25016KT 19/03 A2997 RMK A01 T01850031  RH  037%=      5-min Rain = 0
KGU1 200311Z 26016KT 19/03 A2997 RMK A01 T01850029  RH  036%=      5-min Rain = 0
KGU1 200312Z 27020G30KT 18/03 A2998 RMK A01 T01840026  RH  036%=      5-min Rain = 0
KGU1 200313Z 30026G31KT 18/02 A2998 RMK A01 T01820020  RH  034%=      5-min Rain = 0
KGU1 200314Z 27020G27KT 18/02 A2998 RMK A01 T01810020  RH  035%=      5-min Rain = 0
KGU1 200315Z 27017KT 18/02 A2997 RMK A01 T01800023  RH  036%=      5-min Rain = 0
KGU1 200316Z 28018G25KT 18/03 A2998 RMK A01 T01800025  RH  036%=      5-min Rain = 0
KGU1 200317Z 26014KT 18/03 A2998 RMK A01 T01780026  RH  037%=      5-min Rain = 0
KGU1 200318Z 27022G30KT 18/03 A2998 RMK A01 T01780028  RH  037%=      5-min Rain = 0
KGU1 200319Z 27022G29KT 18/03 A2998 RMK A01 T01770029  RH  038%=      5-min Rain = 0
KGU1 200320Z 28023G31KT 18/03 A2998 RMK A01 T01760028  RH  038%=      5-min Rain = 0
KGU1 200321Z 28024G30KT 17/02 A2998 RMK A01 T01740024  RH  037%=      5-min Rain = 0
KGU1 200322Z 27020KT 17/03 A2998 RMK A01 T01740026  RH  038%=      5-min Rain = 0
KGU1 200323Z 27023KT 17/03 A2998 RMK A01 T01730027  RH  038%=      5-min Rain = 0
KGU1 200324Z 27027G35KT 17/03 A2998 RMK A01 T01720026  RH  038%=      5-min Rain = 0
KGU1 200325Z 27024G29KT 17/03 A2998 RMK A01 T01710026  RH  038%=      5-min Rain = 0
KGU1 200326Z 26025G32KT 17/03 A2998 RMK A01 T01700026  RH  039%=      5-min Rain = 0
KGU1 200327Z 26023G33KT 17/03 A2998 RMK A01 T01690026  RH  039%=      5-min Rain = 0
KGU1 200328Z 26023G32KT 17/03 A2998 RMK A01 T01670025  RH  039%=      5-min Rain = 0
KGU1 200329Z 28017KT 17/02 A2998 RMK A01 T01650024  RH  039%=      5-min Rain = 0
KGU1 200330Z 27021KT 16/03 A2998 RMK A01 T01640025  RH  040%=      5-min Rain = 0
KGU1 200331Z 28020G25KT 16/03 A2998 RMK A01 T01630025  RH  040%=      5-min Rain = 0
KGU1 200332Z 28023KT 16/03 A2998 RMK A01 T01620025  RH  040%=      5-min Rain = 0
KGU1 200333Z 28024G31KT 16/03 A2998 RMK A01 T01620025  RH  040%=      5-min Rain = 0
KGU1 200334Z 28024KT 16/02 A2998 RMK A01 T01620024  RH  040%=      5-min Rain = 0
KGU1 200335Z 28023G28KT 16/03 A2998 RMK A01 T01610025  RH  041%=      5-min Rain = 0
KGU1 200336Z 28018KT 16/03 A2998 RMK A01 T01610025  RH  041%=      5-min Rain = 0
KGU1 200337Z 29024G30KT 16/03 A2998 RMK A01 T01600025  RH  041%=      5-min Rain = 0
KGU1 200338Z 29026KT 16/03 A2998 RMK A01 T01600026  RH  041%=      5-min Rain = 0
KGU1 200339Z 29026G33KT 16/03 A2999 RMK A01 T01600026  RH  041%=      5-min Rain = 0
KGU1 200340Z 29028G35KT 16/03 A2998 RMK A01 T01600026  RH  041%=      5-min Rain = 0
KGU1 200341Z 28024G31KT 16/03 A2998 RMK A01 T01590026  RH  042%=      5-min Rain = 0
KGU1 200342Z 29027KT 16/03 A2998 RMK A01 T01580027  RH  042%=      5-min Rain = 0
KGU1 200343Z 28026G31KT 16/03 A2999 RMK A01 T01580027  RH  042%=      5-min Rain = 0
KGU1 200344Z 28025KT 16/03 A2999 RMK A01 T01570027  RH  042%=      5-min Rain = 0
KGU1 200345Z 29024G30KT 16/03 A2999 RMK A01 T01560027  RH  043%=      5-min Rain = 0
KGU1 200346Z 30025KT 16/03 A2999 RMK A01 T01560027  RH  043%=      5-min Rain = 0
KGU1 200347Z 29024G29KT 16/03 A2999 RMK A01 T01560028  RH  043%=      5-min Rain = 0
KGU1 200348Z 29025G30KT 16/03 A2999 RMK A01 T01550028  RH  043%=      5-min Rain = 0
KGU1 200349Z 30022G27KT 15/03 A2999 RMK A01 T01540029  RH  044%=      5-min Rain = 0
KGU1 200350Z 30022KT 15/03 A2999 RMK A01 T01540029  RH  044%=      5-min Rain = 0
KGU1 200351Z 30021G27KT 15/03 A2999 RMK A01 T01530030  RH  044%=      5-min Rain = 0
KGU1 200352Z 30023G28KT 15/03 A2999 RMK A01 T01520030  RH  045%=      5-min Rain = 0
KGU1 200353Z 30024KT 15/03 A2999 RMK A01 T01520031  RH  045%=      5-min Rain = 0
KGU1 200354Z 31021KT 15/03 A2999 RMK A01 T01510031  RH  045%=      5-min Rain = 0
KGU1 200355Z 31018KT 15/03 A2999 RMK A01 T01510032  RH  046%=      5-min Rain = 0
KGU1 200356Z 31025G32KT 15/03 A2999 RMK A01 T01500032  RH  046%=      5-min Rain = 0
KGU1 200357Z 30026G33KT 15/03 A2999 RMK A01 T01500033  RH  046%=      5-min Rain = 0
KGU1 200358Z 30028G36KT 15/03 A2999 RMK A01 T01510032  RH  046%=      5-min Rain = 0
KGU1 200359Z 30025G31KT 15/03 A2999 RMK A01 T01510032  RH  046%=      5-min Rain = 0
KGU1 200400Z 31024G31KT 15/03 A2999 RMK A01 T01510033  RH  046%=      5-min Rain = 0
KGU1 200401Z 30023G29KT 15/03 A2999 RMK A01 T01500032  RH  046%=      5-min Rain = 0
KGU1 200402Z 30024G29KT 15/03 A2999 RMK A01 T01500032  RH  046%=      5-min Rain = 0
KGU1 200403Z 30024G29KT 15/03 A2999 RMK A01 T01490033  RH  046%=      5-min Rain = 0
KGU1 200404Z 30026G31KT 15/03 A2999 RMK A01 T01490033  RH  047%=      5-min Rain = 0
KGU1 200405Z 30027KT 15/03 A2999 RMK A01 T01480033  RH  047%=      5-min Rain = 0
KGU1 200406Z 30024G30KT 15/03 A2999 RMK A01 T01480034  RH  047%=      5-min Rain = 0
KGU1 200407Z 30027KT 15/04 A2999 RMK A01 T01480036  RH  048%=      5-min Rain = 0
KGU1 200408Z 30025G32KT 15/04 A2999 RMK A01 T01480040  RH  049%=      5-min Rain = 0
KGU1 200409Z 30028G33KT 15/04 A2999 RMK A01 T01470041  RH  050%=      5-min Rain = 0
KGU1 200410Z 30020G25KT 15/04 A2999 RMK A01 T01470043  RH  051%=      5-min Rain = 0
KGU1 200411Z 29023KT 15/05 A2999 RMK A01 T01460045  RH  052%=      5-min Rain = 0
KGU1 200412Z 29026KT 15/05 A2999 RMK A01 T01460049  RH  053%=      5-min Rain = 0
KGU1 200413Z 30024KT 15/05 A2999 RMK A01 T01460051  RH  054%=      5-min Rain = 0
KGU1 200414Z 30023KT 15/05 A2999 RMK A01 T01460052  RH  054%=      5-min Rain = 0
KGU1 200415Z 30028KT 15/06 A2999 RMK A01 T01470056  RH  056%=      5-min Rain = 0
KGU1 200416Z 30027G34KT 15/06 A2999 RMK A01 T01470059  RH  057%=      5-min Rain = 0
KGU1 200417Z 30025G30KT 15/06 A2999 RMK A01 T01480061  RH  057%=      5-min Rain = 0
KGU1 200418Z 30025G30KT 15/06 A2998 RMK A01 T01480061  RH  057%=      5-min Rain = 0
KGU1 200419Z 30023G29KT 15/06 A2998 RMK A01 T01490063  RH  058%=      5-min Rain = 0
KGU1 200420Z 30021G26KT 15/06 A2998 RMK A01 T01490062  RH  057%=      5-min Rain = 0
KGU1 200421Z 30024G29KT 15/06 A2998 RMK A01 T01500061  RH  057%=      5-min Rain = 0
KGU1 200422Z 30020KT 15/06 A2998 RMK A01 T01500063  RH  057%=      5-min Rain = 0
KGU1 200423Z 30020KT 15/06 A2998 RMK A01 T01500063  RH  057%=      5-min Rain = 0
KGU1 200424Z 30021G26KT 15/06 A2998 RMK A01 T01510062  RH  057%=      5-min Rain = 0
KGU1 200425Z 30023KT 15/06 A2998 RMK A01 T01510063  RH  057%=      5-min Rain = 0
KGU1 200426Z 30020KT 15/06 A2998 RMK A01 T01520064  RH  057%=      5-min Rain = 0
KGU1 200427Z 30022G27KT 15/06 A2998 RMK A01 T01520064  RH  057%=      5-min Rain = 0
KGU1 200428Z 30021G27KT 15/06 A2998 RMK A01 T01520064  RH  057%=      5-min Rain = 0
KGU1 200429Z 29016G21KT 15/06 A2998 RMK A01 T01520063  RH  056%=      5-min Rain = 0
KGU1 200430Z 29018G24KT 15/06 A2998 RMK A01 T01520063  RH  056%=      5-min Rain = 0
KGU1 200431Z 29025KT 15/06 A2998 RMK A01 T01530064  RH  057%=      5-min Rain = 0
KGU1 200432Z 30023KT 15/06 A2998 RMK A01 T01540064  RH  057%=      5-min Rain = 0
KGU1 200433Z 29024KT 15/06 A2998 RMK A01 T01540064  RH  056%=      5-min Rain = 0
KGU1 200434Z 29020KT 16/06 A2998 RMK A01 T01550063  RH  056%=      5-min Rain = 0
KGU1 200435Z 30019G24KT 16/06 A2998 RMK A01 T01550064  RH  056%=      5-min Rain = 0
KGU1 200436Z 29023KT 16/06 A2998 RMK A01 T01550064  RH  056%=      5-min Rain = 0
KGU1 200437Z 30019G26KT 16/06 A2998 RMK A01 T01560063  RH  055%=      5-min Rain = 0
KGU1 200438Z 30018KT 16/06 A2997 RMK A01 T01560063  RH  055%=      5-min Rain = 0
KGU1 200439Z 30020KT 16/06 A2997 RMK A01 T01560063  RH  055%=      5-min Rain = 0
KGU1 200440Z 30019G26KT 16/06 A2997 RMK A01 T01560063  RH  055%=      5-min Rain = 0
KGU1 200441Z 30022KT 16/06 A2997 RMK A01 T01570062  RH  054%=      5-min Rain = 0
KGU1 200442Z 29022G27KT 16/06 A2997 RMK A01 T01580062  RH  054%=      5-min Rain = 0
KGU1 200443Z 30020G30KT 16/06 A2997 RMK A01 T01580062  RH  054%=      5-min Rain = 0
KGU1 200444Z 29020KT 16/06 A2997 RMK A01 T01580062  RH  054%=      5-min Rain = 0
KGU1 200445Z 30023G28KT 16/06 A2997 RMK A01 T01580062  RH  054%=      5-min Rain = 0
KGU1 200446Z 30019G27KT 16/06 A2997 RMK A01 T01580062  RH  054%=      5-min Rain = 0
KGU1 200447Z 30023G28KT 16/06 A2997 RMK A01 T01580062  RH  054%=      5-min Rain = 0
KGU1 200448Z 29022KT 16/06 A2997 RMK A01 T01580062  RH  054%=      5-min Rain = 0
KGU1 200449Z 29020KT 16/06 A2997 RMK A01 T01580063  RH  054%=      5-min Rain = 0
KGU1 200450Z 30022KT 16/06 A2997 RMK A01 T01570063  RH  055%=      5-min Rain = 0
KGU1 200451Z 30020G27KT 16/06 A2998 RMK A01 T01570063  RH  055%=      5-min Rain = 0
KGU1 200452Z 30021G27KT 16/06 A2998 RMK A01 T01560063  RH  055%=      5-min Rain = 0
KGU1 200453Z 29021G26KT 16/06 A2998 RMK A01 T01550064  RH  056%=      5-min Rain = 0
KGU1 200454Z 30021G28KT 16/06 A2998 RMK A01 T01550064  RH  056%=      5-min Rain = 0
KGU1 200455Z 29020G25KT 16/06 A2998 RMK A01 T01550064  RH  056%=      5-min Rain = 0
KGU1 200456Z 30019G26KT 15/06 A2998 RMK A01 T01540064  RH  056%=      5-min Rain = 0
KGU1 200457Z 30018KT 15/07 A2998 RMK A01 T01540065  RH  057%=      5-min Rain = 0
KGU1 200458Z 28019G26KT 15/07 A2998 RMK A01 T01530065  RH  057%=      5-min Rain = 0
KGU1 200459Z 28016G22KT 15/07 A2998 RMK A01 T01530065  RH  057%=      5-min Rain = 0
KGU1 200500Z 28014KT 15/06 A2999 RMK A01 T01530064  RH  057%=      5-min Rain = 0
KGU1 200501Z 27009KT 15/06 A2999 RMK A01 T01540064  RH  056%=      5-min Rain = 0
KGU1 200502Z 25004KT 15/06 A2999 RMK A01 T01540064  RH  056%=      5-min Rain = 0
KGU1 200503Z 25005G10KT 15/06 A2999 RMK A01 T01540064  RH  056%=      5-min Rain = 0
KGU1 200504Z 27007G12KT 15/06 A2999 RMK A01 T01540064  RH  056%=      5-min Rain = 0
KGU1 200505Z 24003G9KT 15/06 A2999 RMK A01 T01540063  RH  056%=      5-min Rain = 0
KGU1 200506Z 26008KT 15/06 A2999 RMK A01 T01540063  RH  056%=      5-min Rain = 0
KGU1 200507Z 25007KT 16/06 A2999 RMK A01 T01550064  RH  056%=      5-min Rain = 0
KGU1 200508Z 25006KT 15/06 A2999 RMK A01 T01540064  RH  056%=      5-min Rain = 0
KGU1 200509Z 24006KT 15/06 A2999 RMK A01 T01540064  RH  056%=      5-min Rain = 0
KGU1 200510Z 26006KT 15/06 A2999 RMK A01 T01540064  RH  056%=      5-min Rain = 0
KGU1 200511Z 26004KT 15/06 A2999 RMK A01 T01540064  RH  056%=      5-min Rain = 0
KGU1 200512Z 26004KT 15/06 A2999 RMK A01 T01540064  RH  056%=      5-min Rain = 0
KGU1 200513Z 28011KT 15/07 A2998 RMK A01 T01540065  RH  057%=      5-min Rain = 0
KGU1 200514Z 28013KT 15/07 A2998 RMK A01 T01530065  RH  057%=      5-min Rain = 0
KGU1 200515Z 28013G18KT 15/07 A2998 RMK A01 T01520065  RH  057%=      5-min Rain = 0
KGU1 200516Z 27010G15KT 15/07 A2998 RMK A01 T01520065  RH  057%=      5-min Rain = 0
KGU1 200517Z 27011G16KT 15/07 A2998 RMK A01 T01520065  RH  057%=      5-min Rain = 0
KGU1 200518Z 27013KT 15/07 A2998 RMK A01 T01520065  RH  057%=      5-min Rain = 0
KGU1 200519Z 28013KT 15/07 A2998 RMK A01 T01520065  RH  057%=      5-min Rain = 0
KGU1 200520Z 28011KT 15/07 A2999 RMK A01 T01520065  RH  057%=      5-min Rain = 0
KGU1 200521Z 28014KT 15/07 A2999 RMK A01 T01520066  RH  058%=      5-min Rain = 0
KGU1 200522Z 28017KT 15/07 A2998 RMK A01 T01500067  RH  059%=      5-min Rain = 0
KGU1 200523Z 28014G19KT 15/07 A2998 RMK A01 T01500066  RH  059%=      5-min Rain = 0
KGU1 200524Z 28012KT 15/07 A2998 RMK A01 T01500066  RH  059%=      5-min Rain = 0
KGU1 200525Z 28014KT 15/07 A2999 RMK A01 T01500065  RH  058%=      5-min Rain = 0
KGU1 200526Z 28012KT 15/07 A2998 RMK A01 T01510065  RH  058%=      5-min Rain = 0
KGU1 200527Z 28015KT 15/07 A2999 RMK A01 T01520065  RH  057%=      5-min Rain = 0
KGU1 200528Z 29014KT 15/07 A2999 RMK A01 T01520065  RH  058%=      5-min Rain = 0
KGU1 200529Z 28012KT 15/07 A2999 RMK A01 T01520065  RH  058%=      5-min Rain = 0
KGU1 200530Z 27009KT 15/07 A2999 RMK A01 T01520065  RH  057%=      5-min Rain = 0
KGU1 200531Z 26009KT 15/07 A2999 RMK A01 T01520065  RH  057%=      5-min Rain = 0
KGU1 200532Z 26008KT 15/07 A2999 RMK A01 T01520065  RH  057%=      5-min Rain = 0
KGU1 200533Z 25010G15KT 15/07 A2999 RMK A01 T01520066  RH  058%=      5-min Rain = 0
KGU1 200534Z 27010KT 15/07 A2999 RMK A01 T01510066  RH  058%=      5-min Rain = 0
KGU1 200535Z 28012KT 15/07 A2999 RMK A01 T01510066  RH  058%=      5-min Rain = 0
KGU1 200536Z 28010KT 15/07 A2999 RMK A01 T01510066  RH  058%=      5-min Rain = 0
KGU1 200537Z 28012KT 15/07 A2999 RMK A01 T01510066  RH  058%=      5-min Rain = 0
KGU1 200538Z 28011KT 15/07 A2999 RMK A01 T01510066  RH  058%=      5-min Rain = 0
KGU1 200539Z 29011KT 15/07 A2999 RMK A01 T01510066  RH  058%=      5-min Rain = 0
KGU1 200540Z 29012KT 15/07 A2999 RMK A01 T01510066  RH  058%=      5-min Rain = 0
KGU1 200541Z 29011KT 15/07 A2998 RMK A01 T01510066  RH  058%=      5-min Rain = 0
KGU1 200542Z 28011KT 15/07 A2998 RMK A01 T01520066  RH  058%=      5-min Rain = 0
KGU1 200543Z 28009KT 15/07 A2998 RMK A01 T01510066  RH  058%=      5-min Rain = 0
KGU1 200544Z 28009KT 15/07 A2998 RMK A01 T01510065  RH  058%=      5-min Rain = 0
KGU1 200545Z 26009KT 15/07 A2998 RMK A01 T01520065  RH  057%=      5-min Rain = 0
KGU1 200546Z 25007KT 15/06 A2999 RMK A01 T01520064  RH  057%=      5-min Rain = 0
KGU1 200547Z 23005KT 15/06 A2999 RMK A01 T01520064  RH  057%=      5-min Rain = 0
KGU1 200548Z 23006KT 15/06 A2999 RMK A01 T01530064  RH  057%=      5-min Rain = 0
KGU1 200549Z 22006KT 15/06 A2999 RMK A01 T01540063  RH  056%=      5-min Rain = 0
KGU1 200550Z 21008KT 15/07 A2999 RMK A01 T01530066  RH  057%=      5-min Rain = 0
KGU1 200551Z 21010KT 15/07 A2999 RMK A01 T01480068  RH  061%=      5-min Rain = 0
KGU1 200552Z 21012KT 14/07 A2999 RMK A01 T01420069  RH  063%=      5-min Rain = 0
KGU1 200553Z 21011G16KT 14/07 A2999 RMK A01 T01390070  RH  065%=      5-min Rain = 0
KGU1 200554Z 21011KT 14/07 A2999 RMK A01 T01380070  RH  065%=      5-min Rain = 0
KGU1 200555Z 21011KT 14/07 A2999 RMK A01 T01360070  RH  066%=      5-min Rain = 0
KGU1 200556Z 20010KT 14/07 A2999 RMK A01 T01350070  RH  067%=      5-min Rain = 0
KGU1 200557Z 21009KT 13/07 A2999 RMK A01 T01340071  RH  067%=      5-min Rain = 0
KGU1 200558Z 21010KT 13/07 A2999 RMK A01 T01330071  RH  068%=      5-min Rain = 0
KGU1 200559Z 21010KT 13/07 A2999 RMK A01 T01340069  RH  067%=      5-min Rain = 0

Page generated in 0.0724 seconds.